Observation data for Coyanosa on 07/05/2020      Previous  Date  Next       Current Mesonet Observations  Soil Data  Daily Summary Page  Observations in Plain Language
KCO1 050500Z 15008KT 31/11 A2993 RMK A01 T03100111  RH  029%=      5-min Rain = 0
KCO1 050501Z 15010KT 31/11 A2993 RMK A01 T03090111  RH  029%=      5-min Rain = 0
KCO1 050502Z 15010KT 31/11 A2993 RMK A01 T03090110  RH  029%=      5-min Rain = 0
KCO1 050503Z 15008KT 31/11 A2993 RMK A01 T03090110  RH  029%=      5-min Rain = 0
KCO1 050504Z 15009KT 31/11 A2993 RMK A01 T03090111  RH  029%=      5-min Rain = 0
KCO1 050505Z 15009KT 31/11 A2993 RMK A01 T03090111  RH  030%=      5-min Rain = 0
KCO1 050506Z 15009KT 31/11 A2993 RMK A01 T03090111  RH  030%=      5-min Rain = 0
KCO1 050507Z 15009KT 31/11 A2993 RMK A01 T03080111  RH  030%=      5-min Rain = 0
KCO1 050508Z 15009KT 31/11 A2993 RMK A01 T03080111  RH  030%=      5-min Rain = 0
KCO1 050509Z 15009KT 31/11 A2993 RMK A01 T03080112  RH  030%=      5-min Rain = 0
KCO1 050510Z 15009KT 31/11 A2993 RMK A01 T03070112  RH  030%=      5-min Rain = 0
KCO1 050511Z 15010KT 31/11 A2993 RMK A01 T03070112  RH  030%=      5-min Rain = 0
KCO1 050512Z 15010KT 31/11 A2993 RMK A01 T03070112  RH  030%=      5-min Rain = 0
KCO1 050513Z 15009KT 31/11 A2993 RMK A01 T03070112  RH  030%=      5-min Rain = 0
KCO1 050514Z 15009KT 31/11 A2993 RMK A01 T03070113  RH  030%=      5-min Rain = 0
KCO1 050515Z 15010KT 31/11 A2993 RMK A01 T03070113  RH  030%=      5-min Rain = 0
KCO1 050516Z 15010KT 31/11 A2993 RMK A01 T03080114  RH  030%=      5-min Rain = 0
KCO1 050517Z 15009KT 31/11 A2993 RMK A01 T03070113  RH  030%=      5-min Rain = 0
KCO1 050518Z 15008KT 31/11 A2993 RMK A01 T03070114  RH  030%=      5-min Rain = 0
KCO1 050519Z 15010KT 31/11 A2992 RMK A01 T03070114  RH  030%=      5-min Rain = 0
KCO1 050520Z 15010KT 31/11 A2992 RMK A01 T03060114  RH  031%=      5-min Rain = 0
KCO1 050521Z 15009KT 31/11 A2992 RMK A01 T03060114  RH  031%=      5-min Rain = 0
KCO1 050522Z 15011KT 31/11 A2992 RMK A01 T03060114  RH  031%=      5-min Rain = 0
KCO1 050523Z 15011KT 31/11 A2992 RMK A01 T03060114  RH  031%=      5-min Rain = 0
KCO1 050524Z 15011KT 31/11 A2992 RMK A01 T03070114  RH  031%=      5-min Rain = 0
KCO1 050525Z 15010KT 31/12 A2992 RMK A01 T03080115  RH  031%=      5-min Rain = 0
KCO1 050526Z 15010KT 31/12 A2992 RMK A01 T03080115  RH  031%=      5-min Rain = 0
KCO1 050527Z 15010KT 31/12 A2992 RMK A01 T03070115  RH  031%=      5-min Rain = 0
KCO1 050528Z 15008KT 31/12 A2992 RMK A01 T03070115  RH  031%=      5-min Rain = 0
KCO1 050529Z 14009KT 31/12 A2992 RMK A01 T03060115  RH  031%=      5-min Rain = 0
KCO1 050530Z 15009KT 31/12 A2992 RMK A01 T03060116  RH  031%=      5-min Rain = 0
KCO1 050531Z 15010KT 31/12 A2992 RMK A01 T03060116  RH  031%=      5-min Rain = 0
KCO1 050532Z 15010KT 31/12 A2992 RMK A01 T03050115  RH  031%=      5-min Rain = 0
KCO1 050533Z 15009KT 31/12 A2992 RMK A01 T03050116  RH  031%=      5-min Rain = 0
KCO1 050534Z 15010KT 31/12 A2992 RMK A01 T03050116  RH  031%=      5-min Rain = 0
KCO1 050535Z 15010KT 31/12 A2992 RMK A01 T03050116  RH  031%=      5-min Rain = 0
KCO1 050536Z 15010KT 31/12 A2992 RMK A01 T03050116  RH  031%=      5-min Rain = 0
KCO1 050537Z 15010KT 31/12 A2992 RMK A01 T03050116  RH  031%=      5-min Rain = 0
KCO1 050538Z 15010KT 31/12 A2992 RMK A01 T03050116  RH  031%=      5-min Rain = 0
KCO1 050539Z 15009KT 31/12 A2992 RMK A01 T03050116  RH  031%=      5-min Rain = 0
KCO1 050540Z 15009KT 31/12 A2992 RMK A01 T03050116  RH  031%=      5-min Rain = 0
KCO1 050541Z 15009KT 30/12 A2992 RMK A01 T03040116  RH  031%=      5-min Rain = 0
KCO1 050542Z 15009KT 30/12 A2992 RMK A01 T03040116  RH  031%=      5-min Rain = 0
KCO1 050543Z 15010KT 30/12 A2992 RMK A01 T03040116  RH  031%=      5-min Rain = 0
KCO1 050544Z 15010KT 30/12 A2992 RMK A01 T03040116  RH  031%=      5-min Rain = 0
KCO1 050545Z 15009KT 30/12 A2992 RMK A01 T03040116  RH  031%=      5-min Rain = 0
KCO1 050546Z 15009KT 30/12 A2992 RMK A01 T03040116  RH  031%=      5-min Rain = 0
KCO1 050547Z 15008KT 30/12 A2992 RMK A01 T03030116  RH  032%=      5-min Rain = 0
KCO1 050548Z 15008KT 30/12 A2992 RMK A01 T03020116  RH  032%=      5-min Rain = 0
KCO1 050549Z 15008KT 30/12 A2992 RMK A01 T03020116  RH  032%=      5-min Rain = 0
KCO1 050550Z 15009KT 30/12 A2992 RMK A01 T03010116  RH  032%=      5-min Rain = 0
KCO1 050551Z 15007KT 30/12 A2992 RMK A01 T03010116  RH  032%=      5-min Rain = 0
KCO1 050552Z 15009KT 30/12 A2992 RMK A01 T03010116  RH  032%=      5-min Rain = 0
KCO1 050553Z 15008KT 30/12 A2992 RMK A01 T03000116  RH  032%=      5-min Rain = 0
KCO1 050554Z 15009KT 30/12 A2992 RMK A01 T03000116  RH  032%=      5-min Rain = 0
KCO1 050555Z 15009KT 30/12 A2992 RMK A01 T03000116  RH  032%=      5-min Rain = 0
KCO1 050556Z 15008KT 30/12 A2992 RMK A01 T02990116  RH  032%=      5-min Rain = 0
KCO1 050557Z 15009KT 30/12 A2992 RMK A01 T02990116  RH  032%=      5-min Rain = 0
KCO1 050558Z 15009KT 30/12 A2992 RMK A01 T02990116  RH  032%=      5-min Rain = 0
KCO1 050559Z 15008KT 30/12 A2992 RMK A01 T02990116  RH  032%=      5-min Rain = 0
KCO1 050600Z 15008KT 30/12 A2992 RMK A01 T02990116  RH  032%=      5-min Rain = 0
KCO1 050601Z 15009KT 30/12 A2992 RMK A01 T02980116  RH  033%=      5-min Rain = 0
KCO1 050602Z 15009KT 30/12 A2992 RMK A01 T02980116  RH  033%=      5-min Rain = 0
KCO1 050603Z 15009KT 30/12 A2992 RMK A01 T02980116  RH  032%=      5-min Rain = 0
KCO1 050604Z 15008KT 30/12 A2992 RMK A01 T02980115  RH  032%=      5-min Rain = 0
KCO1 050605Z 15008KT 30/12 A2992 RMK A01 T02990116  RH  032%=      5-min Rain = 0
KCO1 050606Z 15008KT 30/12 A2992 RMK A01 T02990116  RH  032%=      5-min Rain = 0
KCO1 050607Z 15008KT 30/12 A2992 RMK A01 T02990116  RH  032%=      5-min Rain = 0
KCO1 050608Z 15007KT 30/12 A2992 RMK A01 T02980116  RH  032%=      5-min Rain = 0
KCO1 050609Z 15008KT 30/12 A2992 RMK A01 T02980116  RH  032%=      5-min Rain = 0
KCO1 050610Z 15008KT 30/12 A2992 RMK A01 T02980116  RH  033%=      5-min Rain = 0
KCO1 050611Z 14007KT 30/12 A2993 RMK A01 T02980116  RH  033%=      5-min Rain = 0
KCO1 050612Z 14007KT 30/12 A2993 RMK A01 T02970116  RH  033%=      5-min Rain = 0
KCO1 050613Z 14007KT 30/12 A2993 RMK A01 T02960116  RH  033%=      5-min Rain = 0
KCO1 050614Z 15007KT 30/12 A2993 RMK A01 T02960116  RH  033%=      5-min Rain = 0
KCO1 050615Z 14007KT 30/12 A2993 RMK A01 T02950116  RH  033%=      5-min Rain = 0
KCO1 050616Z 15007KT 30/12 A2992 RMK A01 T02950116  RH  033%=      5-min Rain = 0
KCO1 050617Z 15008KT 29/12 A2992 RMK A01 T02940116  RH  033%=      5-min Rain = 0
KCO1 050618Z 14007KT 29/12 A2992 RMK A01 T02940116  RH  033%=      5-min Rain = 0
KCO1 050619Z 15008KT 29/12 A2992 RMK A01 T02930116  RH  033%=      5-min Rain = 0
KCO1 050620Z 14007KT 29/12 A2992 RMK A01 T02930116  RH  034%=      5-min Rain = 0
KCO1 050621Z 15008KT 29/12 A2992 RMK A01 T02930117  RH  034%=      5-min Rain = 0
KCO1 050622Z 15008KT 29/12 A2992 RMK A01 T02930117  RH  034%=      5-min Rain = 0
KCO1 050623Z 15008KT 29/12 A2992 RMK A01 T02920116  RH  034%=      5-min Rain = 0
KCO1 050624Z 15008KT 29/12 A2992 RMK A01 T02920117  RH  034%=      5-min Rain = 0
KCO1 050625Z 15009KT 29/12 A2992 RMK A01 T02920117  RH  034%=      5-min Rain = 0
KCO1 050626Z 15009KT 29/12 A2992 RMK A01 T02920117  RH  034%=      5-min Rain = 0
KCO1 050627Z 15008KT 29/12 A2992 RMK A01 T02930117  RH  034%=      5-min Rain = 0
KCO1 050628Z 15008KT 29/12 A2992 RMK A01 T02930118  RH  034%=      5-min Rain = 0
KCO1 050629Z 15009KT 29/12 A2992 RMK A01 T02930118  RH  034%=      5-min Rain = 0
KCO1 050630Z 15008KT 29/12 A2992 RMK A01 T02930118  RH  034%=      5-min Rain = 0
KCO1 050631Z 15009KT 29/12 A2992 RMK A01 T02930119  RH  034%=      5-min Rain = 0
KCO1 050632Z 15009KT 29/12 A2992 RMK A01 T02930118  RH  034%=      5-min Rain = 0
KCO1 050633Z 15009KT 29/12 A2992 RMK A01 T02930119  RH  034%=      5-min Rain = 0
KCO1 050634Z 15009KT 29/12 A2992 RMK A01 T02930119  RH  034%=      5-min Rain = 0
KCO1 050635Z 15009KT 29/12 A2992 RMK A01 T02930119  RH  034%=      5-min Rain = 0
KCO1 050636Z 15008KT 29/12 A2992 RMK A01 T02930119  RH  034%=      5-min Rain = 0
KCO1 050637Z 15008KT 29/12 A2992 RMK A01 T02930119  RH  034%=      5-min Rain = 0
KCO1 050638Z 15009KT 29/12 A2992 RMK A01 T02930119  RH  034%=      5-min Rain = 0
KCO1 050639Z 15008KT 29/12 A2992 RMK A01 T02920119  RH  034%=      5-min Rain = 0
KCO1 050640Z 15009KT 29/12 A2992 RMK A01 T02920119  RH  034%=      5-min Rain = 0
KCO1 050641Z 15009KT 29/12 A2992 RMK A01 T02920120  RH  034%=      5-min Rain = 0
KCO1 050642Z 15009KT 29/12 A2992 RMK A01 T02930120  RH  034%=      5-min Rain = 0
KCO1 050643Z 15009KT 29/12 A2992 RMK A01 T02920119  RH  034%=      5-min Rain = 0
KCO1 050644Z 15009KT 29/12 A2992 RMK A01 T02920120  RH  034%=      5-min Rain = 0
KCO1 050645Z 15009KT 29/12 A2992 RMK A01 T02930120  RH  034%=      5-min Rain = 0
KCO1 050646Z 15009KT 29/12 A2992 RMK A01 T02930120  RH  034%=      5-min Rain = 0
KCO1 050647Z 15009KT 29/12 A2992 RMK A01 T02920120  RH  035%=      5-min Rain = 0
KCO1 050648Z 16008KT 29/12 A2992 RMK A01 T02920121  RH  035%=      5-min Rain = 0
KCO1 050649Z 16007KT 29/12 A2992 RMK A01 T02920121  RH  035%=      5-min Rain = 0
KCO1 050650Z 16007KT 29/12 A2992 RMK A01 T02930121  RH  035%=      5-min Rain = 0
KCO1 050651Z 16005KT 29/12 A2992 RMK A01 T02930121  RH  035%=      5-min Rain = 0
KCO1 050652Z 16006KT 29/12 A2992 RMK A01 T02930121  RH  035%=      5-min Rain = 0
KCO1 050653Z 16006KT 29/12 A2992 RMK A01 T02920121  RH  035%=      5-min Rain = 0
KCO1 050654Z 17008KT 29/12 A2992 RMK A01 T02910122  RH  035%=      5-min Rain = 0
KCO1 050655Z 16008KT 29/12 A2992 RMK A01 T02910122  RH  035%=      5-min Rain = 0
KCO1 050656Z 16008KT 29/12 A2992 RMK A01 T02920122  RH  035%=      5-min Rain = 0
KCO1 050657Z 16007KT 29/12 A2992 RMK A01 T02920122  RH  035%=      5-min Rain = 0
KCO1 050658Z 16006KT 29/12 A2992 RMK A01 T02920122  RH  035%=      5-min Rain = 0
KCO1 050659Z 16008KT 29/12 A2992 RMK A01 T02930123  RH  035%=      5-min Rain = 0
KCO1 050700Z 16007KT 29/12 A2992 RMK A01 T02920123  RH  035%=      5-min Rain = 0
KCO1 050701Z 16007KT 29/12 A2992 RMK A01 T02920123  RH  035%=      5-min Rain = 0
KCO1 050702Z 16007KT 29/12 A2992 RMK A01 T02920123  RH  035%=      5-min Rain = 0
KCO1 050703Z 16007KT 29/12 A2992 RMK A01 T02920123  RH  035%=      5-min Rain = 0
KCO1 050704Z 16005KT 29/12 A2992 RMK A01 T02920124  RH  035%=      5-min Rain = 0
KCO1 050705Z 16006KT 29/12 A2992 RMK A01 T02920124  RH  036%=      5-min Rain = 0
KCO1 050706Z 16007KT 29/12 A2992 RMK A01 T02900124  RH  036%=      5-min Rain = 0
KCO1 050707Z 16007KT 29/12 A2992 RMK A01 T02900124  RH  036%=      5-min Rain = 0
KCO1 050708Z 16007KT 29/12 A2992 RMK A01 T02900124  RH  036%=      5-min Rain = 0
KCO1 050709Z 16010KT 29/12 A2992 RMK A01 T02900124  RH  036%=      5-min Rain = 0
KCO1 050710Z 17009KT 29/12 A2992 RMK A01 T02910124  RH  036%=      5-min Rain = 0
KCO1 050711Z 17009KT 29/13 A2992 RMK A01 T02910125  RH  036%=      5-min Rain = 0
KCO1 050712Z 17009KT 29/13 A2992 RMK A01 T02900125  RH  036%=      5-min Rain = 0
KCO1 050713Z 17008KT 29/13 A2992 RMK A01 T02880125  RH  036%=      5-min Rain = 0
KCO1 050714Z 17008KT 29/13 A2992 RMK A01 T02870125  RH  037%=      5-min Rain = 0
KCO1 050715Z 18007KT 29/13 A2992 RMK A01 T02860126  RH  037%=      5-min Rain = 0
KCO1 050716Z 18006KT 28/13 A2992 RMK A01 T02840127  RH  038%=      5-min Rain = 0
KCO1 050717Z 19006KT 28/13 A2992 RMK A01 T02830127  RH  038%=      5-min Rain = 0
KCO1 050718Z 18006KT 28/13 A2992 RMK A01 T02820127  RH  038%=      5-min Rain = 0
KCO1 050719Z 18006KT 28/13 A2992 RMK A01 T02810126  RH  038%=      5-min Rain = 0
KCO1 050720Z 19006KT 28/13 A2992 RMK A01 T02810127  RH  039%=      5-min Rain = 0
KCO1 050721Z 19006KT 28/13 A2992 RMK A01 T02800127  RH  039%=      5-min Rain = 0
KCO1 050722Z 19006KT 28/13 A2992 RMK A01 T02800128  RH  039%=      5-min Rain = 0
KCO1 050723Z 19005KT 28/13 A2992 RMK A01 T02790127  RH  039%=      5-min Rain = 0
KCO1 050724Z 18005KT 28/13 A2992 RMK A01 T02800128  RH  039%=      5-min Rain = 0
KCO1 050725Z 17005KT 28/13 A2992 RMK A01 T02790128  RH  039%=      5-min Rain = 0
KCO1 050726Z 18006KT 28/13 A2992 RMK A01 T02790127  RH  039%=      5-min Rain = 0
KCO1 050727Z 18006KT 28/13 A2992 RMK A01 T02780128  RH  039%=      5-min Rain = 0
KCO1 050728Z 18006KT 28/13 A2992 RMK A01 T02780128  RH  039%=      5-min Rain = 0
KCO1 050729Z 18006KT 28/13 A2992 RMK A01 T02780128  RH  040%=      5-min Rain = 0
KCO1 050730Z 19006KT 28/13 A2992 RMK A01 T02780128  RH  040%=      5-min Rain = 0
KCO1 050731Z 19007KT 28/13 A2992 RMK A01 T02780129  RH  040%=      5-min Rain = 0
KCO1 050732Z 19006KT 28/13 A2992 RMK A01 T02770128  RH  040%=      5-min Rain = 0
KCO1 050733Z 19006KT 28/13 A2992 RMK A01 T02770129  RH  040%=      5-min Rain = 0
KCO1 050734Z 20006KT 28/13 A2992 RMK A01 T02760129  RH  040%=      5-min Rain = 0
KCO1 050735Z 20007KT 28/13 A2992 RMK A01 T02760129  RH  040%=      5-min Rain = 0
KCO1 050736Z 19007KT 28/13 A2992 RMK A01 T02760128  RH  040%=      5-min Rain = 0
KCO1 050737Z 19006KT 28/13 A2992 RMK A01 T02760128  RH  040%=      5-min Rain = 0
KCO1 050738Z 19006KT 28/13 A2992 RMK A01 T02770128  RH  040%=      5-min Rain = 0
KCO1 050739Z 19006KT 28/13 A2992 RMK A01 T02770129  RH  040%=      5-min Rain = 0
KCO1 050740Z 19005KT 28/13 A2992 RMK A01 T02760129  RH  040%=      5-min Rain = 0
KCO1 050741Z 19006KT 28/13 A2992 RMK A01 T02750129  RH  040%=      5-min Rain = 0
KCO1 050742Z 19006KT 28/13 A2992 RMK A01 T02750129  RH  040%=      5-min Rain = 0
KCO1 050743Z 19006KT 28/13 A2992 RMK A01 T02750129  RH  040%=      5-min Rain = 0
KCO1 050744Z 20007KT 28/13 A2992 RMK A01 T02750129  RH  040%=      5-min Rain = 0
KCO1 050745Z 19008KT 28/13 A2992 RMK A01 T02750128  RH  040%=      5-min Rain = 0
KCO1 050746Z 19008KT 28/13 A2992 RMK A01 T02760128  RH  040%=      5-min Rain = 0
KCO1 050747Z 19007KT 28/13 A2992 RMK A01 T02760128  RH  040%=      5-min Rain = 0
KCO1 050748Z 19006KT 28/13 A2992 RMK A01 T02760128  RH  040%=      5-min Rain = 0
KCO1 050749Z 19006KT 28/13 A2992 RMK A01 T02760129  RH  040%=      5-min Rain = 0
KCO1 050750Z 19006KT 27/13 A2992 RMK A01 T02740129  RH  041%=      5-min Rain = 0
KCO1 050751Z 19005KT 27/13 A2992 RMK A01 T02720129  RH  041%=      5-min Rain = 0
KCO1 050752Z 20005KT 27/13 A2992 RMK A01 T02710129  RH  041%=      5-min Rain = 0
KCO1 050753Z 20005KT 27/13 A2992 RMK A01 T02700128  RH  041%=      5-min Rain = 0
KCO1 050754Z 19004KT 27/13 A2992 RMK A01 T02700129  RH  042%=      5-min Rain = 0
KCO1 050755Z 18003KT 27/13 A2992 RMK A01 T02690128  RH  042%=      5-min Rain = 0
KCO1 050756Z 17003KT 27/13 A2992 RMK A01 T02680128  RH  042%=      5-min Rain = 0
KCO1 050757Z 17004KT 27/13 A2992 RMK A01 T02670128  RH  042%=      5-min Rain = 0
KCO1 050758Z 17004KT 27/13 A2992 RMK A01 T02670128  RH  042%=      5-min Rain = 0
KCO1 050759Z 18005KT 27/13 A2992 RMK A01 T02660128  RH  042%=      5-min Rain = 0
KCO1 050800Z 18006KT 27/13 A2992 RMK A01 T02660128  RH  042%=      5-min Rain = 0
KCO1 050801Z 18006KT 27/13 A2992 RMK A01 T02650128  RH  042%=      5-min Rain = 0
KCO1 050802Z 18006KT 27/13 A2992 RMK A01 T02650128  RH  043%=      5-min Rain = 0
KCO1 050803Z 18006KT 27/13 A2992 RMK A01 T02650128  RH  043%=      5-min Rain = 0
KCO1 050804Z 18006KT 27/13 A2992 RMK A01 T02660129  RH  043%=      5-min Rain = 0
KCO1 050805Z 17006KT 27/13 A2992 RMK A01 T02660129  RH  043%=      5-min Rain = 0
KCO1 050806Z 18006KT 27/13 A2992 RMK A01 T02660129  RH  043%=      5-min Rain = 0
KCO1 050807Z 18006KT 27/13 A2992 RMK A01 T02660130  RH  043%=      5-min Rain = 0
KCO1 050808Z 18006KT 27/13 A2992 RMK A01 T02660130  RH  043%=      5-min Rain = 0
KCO1 050809Z 18006KT 27/13 A2992 RMK A01 T02660130  RH  043%=      5-min Rain = 0
KCO1 050810Z 18006KT 27/13 A2992 RMK A01 T02660130  RH  043%=      5-min Rain = 0
KCO1 050811Z 18006KT 27/13 A2992 RMK A01 T02660130  RH  043%=      5-min Rain = 0
KCO1 050812Z 18007KT 27/13 A2992 RMK A01 T02660130  RH  043%=      5-min Rain = 0
KCO1 050813Z 18007KT 27/13 A2992 RMK A01 T02660128  RH  043%=      5-min Rain = 0
KCO1 050814Z 18007KT 27/13 A2992 RMK A01 T02680128  RH  042%=      5-min Rain = 0
KCO1 050815Z 18006KT 27/13 A2992 RMK A01 T02690127  RH  042%=      5-min Rain = 0
KCO1 050816Z 18005KT 27/13 A2992 RMK A01 T02700128  RH  041%=      5-min Rain = 0
KCO1 050817Z 18005KT 27/13 A2992 RMK A01 T02700127  RH  041%=      5-min Rain = 0
KCO1 050818Z 18004KT 27/13 A2992 RMK A01 T02700128  RH  041%=      5-min Rain = 0
KCO1 050819Z 18004KT 27/13 A2992 RMK A01 T02690128  RH  042%=      5-min Rain = 0
KCO1 050820Z 18006KT 27/13 A2992 RMK A01 T02680128  RH  042%=      5-min Rain = 0
KCO1 050821Z 18007KT 27/13 A2992 RMK A01 T02680128  RH  042%=      5-min Rain = 0
KCO1 050822Z 18007KT 27/13 A2992 RMK A01 T02680127  RH  042%=      5-min Rain = 0
KCO1 050823Z 18006KT 27/13 A2992 RMK A01 T02690127  RH  041%=      5-min Rain = 0
KCO1 050824Z 18005KT 27/13 A2992 RMK A01 T02690127  RH  041%=      5-min Rain = 0
KCO1 050825Z 18005KT 27/13 A2992 RMK A01 T02690128  RH  042%=      5-min Rain = 0
KCO1 050826Z 18005KT 27/13 A2992 RMK A01 T02670128  RH  042%=      5-min Rain = 0
KCO1 050827Z 19005KT 27/13 A2992 RMK A01 T02660128  RH  042%=      5-min Rain = 0
KCO1 050828Z 19006KT 27/13 A2992 RMK A01 T02650128  RH  043%=      5-min Rain = 0
KCO1 050829Z 18008KT 26/13 A2991 RMK A01 T02640127  RH  042%=      5-min Rain = 0
KCO1 050830Z 18006KT 27/13 A2992 RMK A01 T02670126  RH  042%=      5-min Rain = 0
KCO1 050831Z 18004KT 27/13 A2992 RMK A01 T02680127  RH  042%=      5-min Rain = 0
KCO1 050832Z 18004KT 27/13 A2992 RMK A01 T02680127  RH  042%=      5-min Rain = 0
KCO1 050833Z 19005KT 27/13 A2992 RMK A01 T02670127  RH  042%=      5-min Rain = 0
KCO1 050834Z 19006KT 27/13 A2992 RMK A01 T02670127  RH  042%=      5-min Rain = 0
KCO1 050835Z 18006KT 27/13 A2992 RMK A01 T02670126  RH  042%=      5-min Rain = 0
KCO1 050836Z 18006KT 27/13 A2992 RMK A01 T02690126  RH  041%=      5-min Rain = 0
KCO1 050837Z 17005KT 27/13 A2992 RMK A01 T02690126  RH  041%=      5-min Rain = 0
KCO1 050838Z 17006KT 27/13 A2992 RMK A01 T02700126  RH  041%=      5-min Rain = 0
KCO1 050839Z 17006KT 27/13 A2992 RMK A01 T02700126  RH  041%=      5-min Rain = 0
KCO1 050840Z 17006KT 27/13 A2992 RMK A01 T02700126  RH  041%=      5-min Rain = 0
KCO1 050841Z 16004KT 27/13 A2992 RMK A01 T02700126  RH  041%=      5-min Rain = 0
KCO1 050842Z 17006KT 27/13 A2992 RMK A01 T02690126  RH  041%=      5-min Rain = 0
KCO1 050843Z 17005KT 27/13 A2992 RMK A01 T02680126  RH  041%=      5-min Rain = 0
KCO1 050844Z 16004KT 27/13 A2992 RMK A01 T02680127  RH  042%=      5-min Rain = 0
KCO1 050845Z 14003KT 27/13 A2992 RMK A01 T02670127  RH  042%=      5-min Rain = 0
KCO1 050846Z 12003KT 27/13 A2992 RMK A01 T02660127  RH  042%=      5-min Rain = 0
KCO1 050847Z 12003KT 27/13 A2992 RMK A01 T02650127  RH  043%=      5-min Rain = 0
KCO1 050848Z 10003KT 26/13 A2992 RMK A01 T02640127  RH  043%=      5-min Rain = 0
KCO1 050849Z 09004KT 26/13 A2992 RMK A01 T02630127  RH  043%=      5-min Rain = 0
KCO1 050850Z 09004KT 26/13 A2993 RMK A01 T02620128  RH  043%=      5-min Rain = 0
KCO1 050851Z 09004KT 26/13 A2993 RMK A01 T02600128  RH  044%=      5-min Rain = 0
KCO1 050852Z 08004KT 26/13 A2993 RMK A01 T02580128  RH  044%=      5-min Rain = 0
KCO1 050853Z 08004KT 26/13 A2993 RMK A01 T02560128  RH  045%=      5-min Rain = 0
KCO1 050854Z 09004KT 26/13 A2993 RMK A01 T02550128  RH  045%=      5-min Rain = 0
KCO1 050855Z 08005KT 25/13 A2993 RMK A01 T02540128  RH  046%=      5-min Rain = 0
KCO1 050856Z 07006KT 25/13 A2993 RMK A01 T02530128  RH  046%=      5-min Rain = 0
KCO1 050857Z 07007KT 25/13 A2993 RMK A01 T02520128  RH  046%=      5-min Rain = 0
KCO1 050858Z 08006KT 25/13 A2993 RMK A01 T02510128  RH  046%=      5-min Rain = 0
KCO1 050859Z 08006KT 25/13 A2993 RMK A01 T02500128  RH  046%=      5-min Rain = 0
KCO1 050900Z 08005KT 25/13 A2993 RMK A01 T02500128  RH  047%=      5-min Rain = 0
KCO1 050901Z 07005KT 25/13 A2993 RMK A01 T02500128  RH  047%=      5-min Rain = 0
KCO1 050902Z 08006KT 25/13 A2993 RMK A01 T02490128  RH  047%=      5-min Rain = 0
KCO1 050903Z 08006KT 25/13 A2993 RMK A01 T02480128  RH  047%=      5-min Rain = 0
KCO1 050904Z 08006KT 25/13 A2992 RMK A01 T02480128  RH  047%=      5-min Rain = 0
KCO1 050905Z 08006KT 25/13 A2992 RMK A01 T02480128  RH  047%=      5-min Rain = 0
KCO1 050906Z 08005KT 25/13 A2992 RMK A01 T02480128  RH  047%=      5-min Rain = 0
KCO1 050907Z 09005KT 25/13 A2992 RMK A01 T02480129  RH  047%=      5-min Rain = 0
KCO1 050908Z 09005KT 25/13 A2992 RMK A01 T02480129  RH  047%=      5-min Rain = 0
KCO1 050909Z 09005KT 25/13 A2992 RMK A01 T02480130  RH  048%=      5-min Rain = 0
KCO1 050910Z 09005KT 25/13 A2992 RMK A01 T02480129  RH  048%=      5-min Rain = 0
KCO1 050911Z 09005KT 25/13 A2992 RMK A01 T02480129  RH  048%=      5-min Rain = 0
KCO1 050912Z 09005KT 25/13 A2992 RMK A01 T02480129  RH  048%=      5-min Rain = 0
KCO1 050913Z 08005KT 25/13 A2992 RMK A01 T02490130  RH  047%=      5-min Rain = 0
KCO1 050914Z 08004KT 25/13 A2992 RMK A01 T02490130  RH  047%=      5-min Rain = 0
KCO1 050915Z 08004KT 25/13 A2992 RMK A01 T02490130  RH  047%=      5-min Rain = 0
KCO1 050916Z 09003KT 25/13 A2992 RMK A01 T02490130  RH  047%=      5-min Rain = 0
KCO1 050917Z 09002KT 25/13 A2992 RMK A01 T02490130  RH  047%=      5-min Rain = 0
KCO1 050918Z 08002KT 25/13 A2992 RMK A01 T02490130  RH  048%=      5-min Rain = 0
KCO1 050919Z 08001KT 25/13 A2992 RMK A01 T02490130  RH  048%=      5-min Rain = 0
KCO1 050920Z 08002KT 25/13 A2992 RMK A01 T02490130  RH  048%=      5-min Rain = 0
KCO1 050921Z 08002KT 25/13 A2992 RMK A01 T02490130  RH  048%=      5-min Rain = 0
KCO1 050922Z 08001KT 25/13 A2992 RMK A01 T02490131  RH  048%=      5-min Rain = 0
KCO1 050923Z 09002KT 25/13 A2992 RMK A01 T02490130  RH  048%=      5-min Rain = 0
KCO1 050924Z 07002KT 25/13 A2992 RMK A01 T02490130  RH  048%=      5-min Rain = 0
KCO1 050925Z 08002KT 25/13 A2992 RMK A01 T02490130  RH  048%=      5-min Rain = 0
KCO1 050926Z 10002KT 25/13 A2992 RMK A01 T02490131  RH  048%=      5-min Rain = 0
KCO1 050927Z 11001KT 25/13 A2992 RMK A01 T02490132  RH  048%=      5-min Rain = 0
KCO1 050928Z 10001KT 25/13 A2992 RMK A01 T02480131  RH  048%=      5-min Rain = 0
KCO1 050929Z 08002KT 25/13 A2992 RMK A01 T02480130  RH  048%=      5-min Rain = 0
KCO1 050930Z 07003KT 25/13 A2992 RMK A01 T02480130  RH  048%=      5-min Rain = 0
KCO1 050931Z 07003KT 25/13 A2993 RMK A01 T02490130  RH  048%=      5-min Rain = 0
KCO1 050932Z 06004KT 25/13 A2993 RMK A01 T02490130  RH  048%=      5-min Rain = 0
KCO1 050933Z 05004KT 25/13 A2993 RMK A01 T02490130  RH  048%=      5-min Rain = 0
KCO1 050934Z 06005KT 25/13 A2993 RMK A01 T02490131  RH  048%=      5-min Rain = 0
KCO1 050935Z 07006KT 25/13 A2993 RMK A01 T02490130  RH  047%=      5-min Rain = 0
KCO1 050936Z 07006KT 25/13 A2993 RMK A01 T02490128  RH  047%=      5-min Rain = 0
KCO1 050937Z 07005KT 25/13 A2993 RMK A01 T02490128  RH  047%=      5-min Rain = 0
KCO1 050938Z 07006KT 25/13 A2993 RMK A01 T02490128  RH  047%=      5-min Rain = 0
KCO1 050939Z 07005KT 25/13 A2993 RMK A01 T02490127  RH  047%=      5-min Rain = 0
KCO1 050940Z 07005KT 25/13 A2993 RMK A01 T02490127  RH  047%=      5-min Rain = 0
KCO1 050941Z 07005KT 25/13 A2993 RMK A01 T02490127  RH  047%=      5-min Rain = 0
KCO1 050942Z 07006KT 25/13 A2993 RMK A01 T02490127  RH  046%=      5-min Rain = 0
KCO1 050943Z 08005KT 25/13 A2993 RMK A01 T02490127  RH  046%=      5-min Rain = 0
KCO1 050944Z 08005KT 25/13 A2993 RMK A01 T02490127  RH  046%=      5-min Rain = 0
KCO1 050945Z 08005KT 25/13 A2993 RMK A01 T02490127  RH  047%=      5-min Rain = 0
KCO1 050946Z 08005KT 25/13 A2993 RMK A01 T02490126  RH  047%=      5-min Rain = 0
KCO1 050947Z 08005KT 25/13 A2993 RMK A01 T02490126  RH  047%=      5-min Rain = 0
KCO1 050948Z 08006KT 25/13 A2993 RMK A01 T02480126  RH  047%=      5-min Rain = 0
KCO1 050949Z 08005KT 25/13 A2993 RMK A01 T02480126  RH  047%=      5-min Rain = 0
KCO1 050950Z 08005KT 25/13 A2993 RMK A01 T02470126  RH  047%=      5-min Rain = 0
KCO1 050951Z 09005KT 25/13 A2993 RMK A01 T02470125  RH  047%=      5-min Rain = 0
KCO1 050952Z 09005KT 25/13 A2993 RMK A01 T02460125  RH  047%=      5-min Rain = 0
KCO1 050953Z 09006KT 25/13 A2992 RMK A01 T02460125  RH  047%=      5-min Rain = 0
KCO1 050954Z 09005KT 25/13 A2992 RMK A01 T02460125  RH  047%=      5-min Rain = 0
KCO1 050955Z 09005KT 25/13 A2992 RMK A01 T02450125  RH  047%=      5-min Rain = 0
KCO1 050956Z 09005KT 25/13 A2992 RMK A01 T02450125  RH  047%=      5-min Rain = 0
KCO1 050957Z 09005KT 24/12 A2992 RMK A01 T02440124  RH  047%=      5-min Rain = 0
KCO1 050958Z 09005KT 24/12 A2992 RMK A01 T02440124  RH  047%=      5-min Rain = 0
KCO1 050959Z 09006KT 24/13 A2992 RMK A01 T02440125  RH  048%=      5-min Rain = 0
KCO1 051000Z 10005KT 24/13 A2992 RMK A01 T02430125  RH  048%=      5-min Rain = 0
KCO1 051001Z 10006KT 24/13 A2992 RMK A01 T02430125  RH  048%=      5-min Rain = 0
KCO1 051002Z 09005KT 24/13 A2992 RMK A01 T02430125  RH  048%=      5-min Rain = 0
KCO1 051003Z 09004KT 24/13 A2993 RMK A01 T02430125  RH  048%=      5-min Rain = 0
KCO1 051004Z 09005KT 24/13 A2993 RMK A01 T02430125  RH  048%=      5-min Rain = 0
KCO1 051005Z 10004KT 24/13 A2993 RMK A01 T02430125  RH  048%=      5-min Rain = 0
KCO1 051006Z 09004KT 24/13 A2993 RMK A01 T02430125  RH  048%=      5-min Rain = 0
KCO1 051007Z 09005KT 24/13 A2993 RMK A01 T02430126  RH  048%=      5-min Rain = 0
KCO1 051008Z 09006KT 24/13 A2993 RMK A01 T02430126  RH  048%=      5-min Rain = 0
KCO1 051009Z 09006KT 24/13 A2993 RMK A01 T02420125  RH  048%=      5-min Rain = 0
KCO1 051010Z 09007KT 24/13 A2993 RMK A01 T02420125  RH  048%=      5-min Rain = 0
KCO1 051011Z 09007KT 24/13 A2993 RMK A01 T02430126  RH  048%=      5-min Rain = 0
KCO1 051012Z 09007KT 24/13 A2993 RMK A01 T02420126  RH  048%=      5-min Rain = 0
KCO1 051013Z 09007KT 24/13 A2993 RMK A01 T02420126  RH  048%=      5-min Rain = 0
KCO1 051014Z 09007KT 24/13 A2993 RMK A01 T02430126  RH  048%=      5-min Rain = 0
KCO1 051015Z 09007KT 24/13 A2993 RMK A01 T02430125  RH  048%=      5-min Rain = 0
KCO1 051016Z 09007KT 24/13 A2993 RMK A01 T02430125  RH  048%=      5-min Rain = 0
KCO1 051017Z 09006KT 24/13 A2993 RMK A01 T02440126  RH  047%=      5-min Rain = 0
KCO1 051018Z 10006KT 25/13 A2993 RMK A01 T02450126  RH  047%=      5-min Rain = 0
KCO1 051019Z 10006KT 25/13 A2993 RMK A01 T02450125  RH  047%=      5-min Rain = 0
KCO1 051020Z 09006KT 25/13 A2993 RMK A01 T02450126  RH  047%=      5-min Rain = 0
KCO1 051021Z 09006KT 25/13 A2993 RMK A01 T02450125  RH  047%=      5-min Rain = 0
KCO1 051022Z 09006KT 25/13 A2993 RMK A01 T02450125  RH  047%=      5-min Rain = 0
KCO1 051023Z 09007KT 25/13 A2993 RMK A01 T02450125  RH  047%=      5-min Rain = 0
KCO1 051024Z 09008KT 25/13 A2993 RMK A01 T02450126  RH  047%=      5-min Rain = 0
KCO1 051025Z 09007KT 25/13 A2993 RMK A01 T02450126  RH  047%=      5-min Rain = 0
KCO1 051026Z 09008KT 24/13 A2993 RMK A01 T02440125  RH  047%=      5-min Rain = 0
KCO1 051027Z 09008KT 24/13 A2993 RMK A01 T02440126  RH  047%=      5-min Rain = 0
KCO1 051028Z 09007KT 25/13 A2993 RMK A01 T02450126  RH  047%=      5-min Rain = 0
KCO1 051029Z 09007KT 25/13 A2993 RMK A01 T02450125  RH  047%=      5-min Rain = 0
KCO1 051030Z 09006KT 25/13 A2993 RMK A01 T02450125  RH  047%=      5-min Rain = 0
KCO1 051031Z 09006KT 25/13 A2993 RMK A01 T02450125  RH  047%=      5-min Rain = 0
KCO1 051032Z 09006KT 25/13 A2993 RMK A01 T02450125  RH  047%=      5-min Rain = 0
KCO1 051033Z 09006KT 25/13 A2993 RMK A01 T02450125  RH  047%=      5-min Rain = 0
KCO1 051034Z 09006KT 25/13 A2993 RMK A01 T02450125  RH  047%=      5-min Rain = 0
KCO1 051035Z 09006KT 25/13 A2993 RMK A01 T02450125  RH  047%=      5-min Rain = 0
KCO1 051036Z 09006KT 25/13 A2993 RMK A01 T02450125  RH  047%=      5-min Rain = 0
KCO1 051037Z 09007KT 25/13 A2993 RMK A01 T02450125  RH  047%=      5-min Rain = 0
KCO1 051038Z 09006KT 25/13 A2993 RMK A01 T02450125  RH  047%=      5-min Rain = 0
KCO1 051039Z 09006KT 25/13 A2993 RMK A01 T02450125  RH  047%=      5-min Rain = 0
KCO1 051040Z 09007KT 25/13 A2993 RMK A01 T02450125  RH  047%=      5-min Rain = 0
KCO1 051041Z 09007KT 25/13 A2993 RMK A01 T02450125  RH  047%=      5-min Rain = 0
KCO1 051042Z 09007KT 25/13 A2994 RMK A01 T02450125  RH  047%=      5-min Rain = 0
KCO1 051043Z 09007KT 25/13 A2994 RMK A01 T02460126  RH  047%=      5-min Rain = 0
KCO1 051044Z 09007KT 25/13 A2993 RMK A01 T02460125  RH  047%=      5-min Rain = 0
KCO1 051045Z 10006KT 25/13 A2993 RMK A01 T02470125  RH  047%=      5-min Rain = 0
KCO1 051046Z 10006KT 25/13 A2993 RMK A01 T02470125  RH  047%=      5-min Rain = 0
KCO1 051047Z 10006KT 25/13 A2993 RMK A01 T02470125  RH  047%=      5-min Rain = 0
KCO1 051048Z 10006KT 25/13 A2993 RMK A01 T02460125  RH  047%=      5-min Rain = 0
KCO1 051049Z 10006KT 25/13 A2993 RMK A01 T02460125  RH  047%=      5-min Rain = 0
KCO1 051050Z 10006KT 25/13 A2994 RMK A01 T02460125  RH  047%=      5-min Rain = 0
KCO1 051051Z 10007KT 25/13 A2994 RMK A01 T02460125  RH  047%=      5-min Rain = 0
KCO1 051052Z 10006KT 25/13 A2994 RMK A01 T02450125  RH  047%=      5-min Rain = 0
KCO1 051053Z 10007KT 25/13 A2994 RMK A01 T02450125  RH  047%=      5-min Rain = 0
KCO1 051054Z 10007KT 25/13 A2994 RMK A01 T02450125  RH  047%=      5-min Rain = 0
KCO1 051055Z 10007KT 25/13 A2994 RMK A01 T02450125  RH  047%=      5-min Rain = 0
KCO1 051056Z 10007KT 25/13 A2994 RMK A01 T02450125  RH  047%=      5-min Rain = 0
KCO1 051057Z 10007KT 25/13 A2994 RMK A01 T02450125  RH  047%=      5-min Rain = 0
KCO1 051058Z 11007KT 25/13 A2994 RMK A01 T02450125  RH  047%=      5-min Rain = 0
KCO1 051059Z 10006KT 25/13 A2994 RMK A01 T02450125  RH  047%=      5-min Rain = 0
KCO1 051100Z 10005KT 24/13 A2994 RMK A01 T02440125  RH  047%=      5-min Rain = 0
KCO1 051101Z 10005KT 24/13 A2994 RMK A01 T02440126  RH  047%=      5-min Rain = 0
KCO1 051102Z 10005KT 24/13 A2994 RMK A01 T02440125  RH  048%=      5-min Rain = 0
KCO1 051103Z 10004KT 24/13 A2994 RMK A01 T02430126  RH  048%=      5-min Rain = 0
KCO1 051104Z 10005KT 24/13 A2994 RMK A01 T02430126  RH  048%=      5-min Rain = 0
KCO1 051105Z 10005KT 24/13 A2994 RMK A01 T02430126  RH  048%=      5-min Rain = 0
KCO1 051106Z 10006KT 24/13 A2994 RMK A01 T02430126  RH  048%=      5-min Rain = 0
KCO1 051107Z 10005KT 24/13 A2994 RMK A01 T02430126  RH  048%=      5-min Rain = 0
KCO1 051108Z 10006KT 24/13 A2994 RMK A01 T02430126  RH  048%=      5-min Rain = 0
KCO1 051109Z 10006KT 24/13 A2994 RMK A01 T02430126  RH  048%=      5-min Rain = 0
KCO1 051110Z 10007KT 24/13 A2994 RMK A01 T02440126  RH  048%=      5-min Rain = 0
KCO1 051111Z 10007KT 24/13 A2994 RMK A01 T02440126  RH  048%=      5-min Rain = 0
KCO1 051112Z 10007KT 24/13 A2994 RMK A01 T02440126  RH  048%=      5-min Rain = 0
KCO1 051113Z 10008KT 24/13 A2994 RMK A01 T02440126  RH  048%=      5-min Rain = 0
KCO1 051114Z 10008KT 24/13 A2994 RMK A01 T02440125  RH  047%=      5-min Rain = 0
KCO1 051115Z 10008KT 24/13 A2994 RMK A01 T02440125  RH  047%=      5-min Rain = 0
KCO1 051116Z 10007KT 24/13 A2994 RMK A01 T02440125  RH  047%=      5-min Rain = 0
KCO1 051117Z 10007KT 24/13 A2994 RMK A01 T02440125  RH  047%=      5-min Rain = 0
KCO1 051118Z 10007KT 24/13 A2994 RMK A01 T02440125  RH  047%=      5-min Rain = 0
KCO1 051119Z 10007KT 24/13 A2994 RMK A01 T02440125  RH  047%=      5-min Rain = 0
KCO1 051120Z 10006KT 24/13 A2994 RMK A01 T02440125  RH  047%=      5-min Rain = 0
KCO1 051121Z 09005KT 24/13 A2994 RMK A01 T02440125  RH  047%=      5-min Rain = 0
KCO1 051122Z 10005KT 24/13 A2995 RMK A01 T02440125  RH  047%=      5-min Rain = 0
KCO1 051123Z 10005KT 24/13 A2995 RMK A01 T02430125  RH  048%=      5-min Rain = 0
KCO1 051124Z 10005KT 24/13 A2994 RMK A01 T02430125  RH  048%=      5-min Rain = 0
KCO1 051125Z 11005KT 24/13 A2994 RMK A01 T02430125  RH  048%=      5-min Rain = 0
KCO1 051126Z 11005KT 24/13 A2994 RMK A01 T02430125  RH  048%=      5-min Rain = 0
KCO1 051127Z 12005KT 24/13 A2994 RMK A01 T02430125  RH  048%=      5-min Rain = 0
KCO1 051128Z 12005KT 24/13 A2994 RMK A01 T02430125  RH  048%=      5-min Rain = 0
KCO1 051129Z 11006KT 24/13 A2994 RMK A01 T02430125  RH  048%=      5-min Rain = 0
KCO1 051130Z 12006KT 24/13 A2994 RMK A01 T02420125  RH  048%=      5-min Rain = 0
KCO1 051131Z 11006KT 24/13 A2994 RMK A01 T02420125  RH  048%=      5-min Rain = 0
KCO1 051132Z 11006KT 24/13 A2994 RMK A01 T02420125  RH  048%=      5-min Rain = 0
KCO1 051133Z 11006KT 24/13 A2994 RMK A01 T02420125  RH  048%=      5-min Rain = 0
KCO1 051134Z 11005KT 24/13 A2994 RMK A01 T02430125  RH  048%=      5-min Rain = 0
KCO1 051135Z 11005KT 24/13 A2994 RMK A01 T02420125  RH  048%=      5-min Rain = 0
KCO1 051136Z 12005KT 24/13 A2995 RMK A01 T02420125  RH  048%=      5-min Rain = 0
KCO1 051137Z 11005KT 24/13 A2995 RMK A01 T02420126  RH  048%=      5-min Rain = 0
KCO1 051138Z 12005KT 24/13 A2995 RMK A01 T02420125  RH  048%=      5-min Rain = 0
KCO1 051139Z 12005KT 24/13 A2995 RMK A01 T02410125  RH  048%=      5-min Rain = 0
KCO1 051140Z 12005KT 24/13 A2995 RMK A01 T02420126  RH  048%=      5-min Rain = 0
KCO1 051141Z 13005KT 24/13 A2995 RMK A01 T02410126  RH  048%=      5-min Rain = 0
KCO1 051142Z 13004KT 24/13 A2995 RMK A01 T02410126  RH  048%=      5-min Rain = 0
KCO1 051143Z 13004KT 24/13 A2995 RMK A01 T02410126  RH  048%=      5-min Rain = 0
KCO1 051144Z 13005KT 24/13 A2995 RMK A01 T02410125  RH  048%=      5-min Rain = 0
KCO1 051145Z 12006KT 24/13 A2995 RMK A01 T02410125  RH  048%=      5-min Rain = 0
KCO1 051146Z 12006KT 24/13 A2995 RMK A01 T02410126  RH  048%=      5-min Rain = 0
KCO1 051147Z 12006KT 24/13 A2995 RMK A01 T02410126  RH  048%=      5-min Rain = 0
KCO1 051148Z 11007KT 24/13 A2995 RMK A01 T02410126  RH  048%=      5-min Rain = 0
KCO1 051149Z 11007KT 24/13 A2994 RMK A01 T02410126  RH  049%=      5-min Rain = 0
KCO1 051150Z 12007KT 24/13 A2994 RMK A01 T02410126  RH  049%=      5-min Rain = 0
KCO1 051151Z 11006KT 24/13 A2994 RMK A01 T02410126  RH  049%=      5-min Rain = 0
KCO1 051152Z 12006KT 24/13 A2994 RMK A01 T02410126  RH  048%=      5-min Rain = 0
KCO1 051153Z 12005KT 24/13 A2994 RMK A01 T02420127  RH  049%=      5-min Rain = 0
KCO1 051154Z 12006KT 24/13 A2994 RMK A01 T02410127  RH  049%=      5-min Rain = 0
KCO1 051155Z 13005KT 24/13 A2994 RMK A01 T02410127  RH  049%=      5-min Rain = 0
KCO1 051156Z 12005KT 24/13 A2994 RMK A01 T02420128  RH  049%=      5-min Rain = 0
KCO1 051157Z 12006KT 24/13 A2994 RMK A01 T02420128  RH  049%=      5-min Rain = 0
KCO1 051158Z 13006KT 24/13 A2994 RMK A01 T02410127  RH  049%=      5-min Rain = 0
KCO1 051159Z 12005KT 24/13 A2994 RMK A01 T02420128  RH  049%=      5-min Rain = 0
KCO1 051200Z 13006KT 24/13 A2994 RMK A01 T02420127  RH  049%=      5-min Rain = 0
KCO1 051201Z 13006KT 24/13 A2994 RMK A01 T02430127  RH  049%=      5-min Rain = 0
KCO1 051202Z 13006KT 24/13 A2994 RMK A01 T02430127  RH  048%=      5-min Rain = 0
KCO1 051203Z 13007KT 24/13 A2994 RMK A01 T02440127  RH  048%=      5-min Rain = 0
KCO1 051204Z 13006KT 25/13 A2994 RMK A01 T02450127  RH  048%=      5-min Rain = 0
KCO1 051205Z 13007KT 25/13 A2994 RMK A01 T02450127  RH  048%=      5-min Rain = 0
KCO1 051206Z 13006KT 25/13 A2994 RMK A01 T02460127  RH  047%=      5-min Rain = 0
KCO1 051207Z 12006KT 25/13 A2994 RMK A01 T02460127  RH  047%=      5-min Rain = 0
KCO1 051208Z 12006KT 25/13 A2995 RMK A01 T02460127  RH  047%=      5-min Rain = 0
KCO1 051209Z 12005KT 25/13 A2995 RMK A01 T02460128  RH  048%=      5-min Rain = 0
KCO1 051210Z 12006KT 25/13 A2995 RMK A01 T02460128  RH  048%=      5-min Rain = 0
KCO1 051211Z 12007KT 25/13 A2995 RMK A01 T02460129  RH  048%=      5-min Rain = 0
KCO1 051212Z 11007KT 25/13 A2995 RMK A01 T02460128  RH  048%=      5-min Rain = 0
KCO1 051213Z 11006KT 25/13 A2995 RMK A01 T02450128  RH  048%=      5-min Rain = 0
KCO1 051214Z 11007KT 25/13 A2995 RMK A01 T02450128  RH  048%=      5-min Rain = 0
KCO1 051215Z 11007KT 25/13 A2995 RMK A01 T02460128  RH  048%=      5-min Rain = 0
KCO1 051216Z 11006KT 25/13 A2995 RMK A01 T02450128  RH  048%=      5-min Rain = 0
KCO1 051217Z 11006KT 25/13 A2995 RMK A01 T02450127  RH  048%=      5-min Rain = 0
KCO1 051218Z 12005KT 25/13 A2995 RMK A01 T02460128  RH  048%=      5-min Rain = 0
KCO1 051219Z 12006KT 25/13 A2995 RMK A01 T02460128  RH  048%=      5-min Rain = 0
KCO1 051220Z 12007KT 25/13 A2995 RMK A01 T02470128  RH  048%=      5-min Rain = 0
KCO1 051221Z 12006KT 25/13 A2995 RMK A01 T02470128  RH  047%=      5-min Rain = 0
KCO1 051222Z 12005KT 25/13 A2995 RMK A01 T02470128  RH  048%=      5-min Rain = 0
KCO1 051223Z 12006KT 25/13 A2995 RMK A01 T02470128  RH  047%=      5-min Rain = 0
KCO1 051224Z 12007KT 25/13 A2995 RMK A01 T02480128  RH  047%=      5-min Rain = 0
KCO1 051225Z 12006KT 25/13 A2995 RMK A01 T02480128  RH  047%=      5-min Rain = 0
KCO1 051226Z 11005KT 25/13 A2995 RMK A01 T02480128  RH  047%=      5-min Rain = 0
KCO1 051227Z 11005KT 25/13 A2995 RMK A01 T02490129  RH  047%=      5-min Rain = 0
KCO1 051228Z 11005KT 25/13 A2995 RMK A01 T02490128  RH  047%=      5-min Rain = 0
KCO1 051229Z 10006KT 25/13 A2995 RMK A01 T02500129  RH  047%=      5-min Rain = 0
KCO1 051230Z 08006KT 25/13 A2995 RMK A01 T02500128  RH  047%=      5-min Rain = 0
KCO1 051231Z 06007KT 25/13 A2996 RMK A01 T02510129  RH  047%=      5-min Rain = 0
KCO1 051232Z 05010KT 25/13 A2996 RMK A01 T02510129  RH  046%=      5-min Rain = 0
KCO1 051233Z 04011KT 25/13 A2997 RMK A01 T02520128  RH  046%=      5-min Rain = 0
KCO1 051234Z 04011KT 25/13 A2997 RMK A01 T02520127  RH  046%=      5-min Rain = 0
KCO1 051235Z 05009KT 25/13 A2996 RMK A01 T02510125  RH  045%=      5-min Rain = 0
KCO1 051236Z 08006KT 25/13 A2996 RMK A01 T02510125  RH  045%=      5-min Rain = 0
KCO1 051237Z 09005KT 25/13 A2996 RMK A01 T02500125  RH  046%=      5-min Rain = 0
KCO1 051238Z 09006KT 25/12 A2996 RMK A01 T02510124  RH  045%=      5-min Rain = 0
KCO1 051239Z 09007KT 25/12 A2996 RMK A01 T02520124  RH  045%=      5-min Rain = 0
KCO1 051240Z 09006KT 25/12 A2996 RMK A01 T02540124  RH  045%=      5-min Rain = 0
KCO1 051241Z 09007KT 25/12 A2996 RMK A01 T02540124  RH  045%=      5-min Rain = 0
KCO1 051242Z 09006KT 25/12 A2996 RMK A01 T02530124  RH  044%=      5-min Rain = 0
KCO1 051243Z 08006KT 25/13 A2996 RMK A01 T02530125  RH  045%=      5-min Rain = 0
KCO1 051244Z 08006KT 25/13 A2996 RMK A01 T02540125  RH  045%=      5-min Rain = 0
KCO1 051245Z 07007KT 25/13 A2996 RMK A01 T02540125  RH  045%=      5-min Rain = 0
KCO1 051246Z 07007KT 26/13 A2996 RMK A01 T02550125  RH  044%=      5-min Rain = 0
KCO1 051247Z 06007KT 26/13 A2996 RMK A01 T02550125  RH  044%=      5-min Rain = 0
KCO1 051248Z 05008KT 26/13 A2997 RMK A01 T02560125  RH  044%=      5-min Rain = 0
KCO1 051249Z 05011KT 26/13 A2997 RMK A01 T02570126  RH  044%=      5-min Rain = 0
KCO1 051250Z 05010KT 26/13 A2997 RMK A01 T02580126  RH  044%=      5-min Rain = 0
KCO1 051251Z 05009KT 26/13 A2997 RMK A01 T02570126  RH  044%=      5-min Rain = 0
KCO1 051252Z 06009KT 26/13 A2997 RMK A01 T02580126  RH  044%=      5-min Rain = 0
KCO1 051253Z 06008KT 26/13 A2997 RMK A01 T02580126  RH  044%=      5-min Rain = 0
KCO1 051254Z 06006KT 26/13 A2997 RMK A01 T02580126  RH  044%=      5-min Rain = 0
KCO1 051255Z 06008KT 26/13 A2997 RMK A01 T02590126  RH  044%=      5-min Rain = 0
KCO1 051256Z 06008KT 26/13 A2997 RMK A01 T02600125  RH  043%=      5-min Rain = 0
KCO1 051257Z 06008KT 26/13 A2997 RMK A01 T02600125  RH  043%=      5-min Rain = 0
KCO1 051258Z 06009KT 26/13 A2997 RMK A01 T02610125  RH  043%=      5-min Rain = 0
KCO1 051259Z 06008KT 26/13 A2997 RMK A01 T02610125  RH  043%=      5-min Rain = 0
KCO1 051300Z 06008KT 26/13 A2997 RMK A01 T02610125  RH  043%=      5-min Rain = 0
KCO1 051301Z 06007KT 26/13 A2997 RMK A01 T02610125  RH  043%=      5-min Rain = 0
KCO1 051302Z 07009KT 26/13 A2997 RMK A01 T02610126  RH  043%=      5-min Rain = 0
KCO1 051303Z 07008KT 26/13 A2997 RMK A01 T02610125  RH  043%=      5-min Rain = 0
KCO1 051304Z 07008KT 26/13 A2997 RMK A01 T02620125  RH  043%=      5-min Rain = 0
KCO1 051305Z 07009KT 26/13 A2997 RMK A01 T02620125  RH  043%=      5-min Rain = 0
KCO1 051306Z 07009KT 26/13 A2997 RMK A01 T02620125  RH  043%=      5-min Rain = 0
KCO1 051307Z 07010KT 26/13 A2997 RMK A01 T02620126  RH  043%=      5-min Rain = 0
KCO1 051308Z 08009KT 26/13 A2997 RMK A01 T02620126  RH  043%=      5-min Rain = 0
KCO1 051309Z 08009KT 26/13 A2997 RMK A01 T02630126  RH  043%=      5-min Rain = 0
KCO1 051310Z 08007KT 26/13 A2997 RMK A01 T02630126  RH  043%=      5-min Rain = 0
KCO1 051311Z 08008KT 26/13 A2997 RMK A01 T02630127  RH  043%=      5-min Rain = 0
KCO1 051312Z 09009KT 26/13 A2997 RMK A01 T02640127  RH  043%=      5-min Rain = 0
KCO1 051313Z 08008KT 26/13 A2997 RMK A01 T02640127  RH  043%=      5-min Rain = 0
KCO1 051314Z 08009KT 26/13 A2997 RMK A01 T02640127  RH  043%=      5-min Rain = 0
KCO1 051315Z 08009KT 27/13 A2997 RMK A01 T02650127  RH  042%=      5-min Rain = 0
KCO1 051316Z 08009KT 27/13 A2997 RMK A01 T02660127  RH  042%=      5-min Rain = 0
KCO1 051317Z 08007KT 27/13 A2997 RMK A01 T02660126  RH  042%=      5-min Rain = 0
KCO1 051318Z 08008KT 27/13 A2997 RMK A01 T02660127  RH  042%=      5-min Rain = 0
KCO1 051319Z 09008KT 27/13 A2997 RMK A01 T02660127  RH  042%=      5-min Rain = 0
KCO1 051320Z 09008KT 27/13 A2997 RMK A01 T02660127  RH  042%=      5-min Rain = 0
KCO1 051321Z 08009KT 27/13 A2997 RMK A01 T02670128  RH  042%=      5-min Rain = 0
KCO1 051322Z 08008KT 27/13 A2997 RMK A01 T02670128  RH  042%=      5-min Rain = 0
KCO1 051323Z 09008KT 27/13 A2997 RMK A01 T02670128  RH  042%=      5-min Rain = 0
KCO1 051324Z 08009KT 27/13 A2997 RMK A01 T02670128  RH  042%=      5-min Rain = 0
KCO1 051325Z 09009KT 27/13 A2997 RMK A01 T02670128  RH  042%=      5-min Rain = 0
KCO1 051326Z 09010KT 27/13 A2997 RMK A01 T02670128  RH  042%=      5-min Rain = 0
KCO1 051327Z 09008KT 27/13 A2997 RMK A01 T02670128  RH  042%=      5-min Rain = 0
KCO1 051328Z 09008KT 27/13 A2997 RMK A01 T02670129  RH  042%=      5-min Rain = 0
KCO1 051329Z 09011KT 27/13 A2997 RMK A01 T02670129  RH  042%=      5-min Rain = 0
KCO1 051330Z 09008KT 27/13 A2997 RMK A01 T02670129  RH  042%=      5-min Rain = 0
KCO1 051331Z 08009KT 27/13 A2997 RMK A01 T02670129  RH  042%=      5-min Rain = 0
KCO1 051332Z 09008KT 27/13 A2997 RMK A01 T02670129  RH  042%=      5-min Rain = 0
KCO1 051333Z 08008KT 27/13 A2997 RMK A01 T02670130  RH  042%=      5-min Rain = 0
KCO1 051334Z 08009KT 27/13 A2997 RMK A01 T02670129  RH  042%=      5-min Rain = 0
KCO1 051335Z 08007KT 27/13 A2997 RMK A01 T02670129  RH  042%=      5-min Rain = 0
KCO1 051336Z 08010KT 27/13 A2997 RMK A01 T02680130  RH  043%=      5-min Rain = 0
KCO1 051337Z 07009KT 27/13 A2998 RMK A01 T02680130  RH  042%=      5-min Rain = 0
KCO1 051338Z 07010KT 27/13 A2998 RMK A01 T02680130  RH  042%=      5-min Rain = 0
KCO1 051339Z 07010KT 27/13 A2998 RMK A01 T02680130  RH  042%=      5-min Rain = 0
KCO1 051340Z 08008KT 27/13 A2998 RMK A01 T02690130  RH  042%=      5-min Rain = 0
KCO1 051341Z 08006KT 27/13 A2998 RMK A01 T02690131  RH  042%=      5-min Rain = 0
KCO1 051342Z 08006KT 27/13 A2998 RMK A01 T02700132  RH  043%=      5-min Rain = 0
KCO1 051343Z 08007KT 27/13 A2998 RMK A01 T02700132  RH  042%=      5-min Rain = 0
KCO1 051344Z 08007KT 27/13 A2998 RMK A01 T02710132  RH  042%=      5-min Rain = 0
KCO1 051345Z 08009KT 27/13 A2998 RMK A01 T02700131  RH  042%=      5-min Rain = 0
KCO1 051346Z 09007KT 27/13 A2998 RMK A01 T02700132  RH  042%=      5-min Rain = 0
KCO1 051347Z 09009KT 27/13 A2998 RMK A01 T02710132  RH  042%=      5-min Rain = 0
KCO1 051348Z 09009KT 27/13 A2998 RMK A01 T02730132  RH  042%=      5-min Rain = 0
KCO1 051349Z 09009KT 28/13 A2998 RMK A01 T02750133  RH  041%=      5-min Rain = 0
KCO1 051350Z 09009KT 28/13 A2998 RMK A01 T02760132  RH  041%=      5-min Rain = 0
KCO1 051351Z 10009KT 28/13 A2998 RMK A01 T02770133  RH  041%=      5-min Rain = 0
KCO1 051352Z 10007KT 28/13 A2998 RMK A01 T02780134  RH  041%=      5-min Rain = 0
KCO1 051353Z 10007KT 28/14 A2998 RMK A01 T02800135  RH  041%=      5-min Rain = 0
KCO1 051354Z 10009KT 28/14 A2998 RMK A01 T02810135  RH  040%=      5-min Rain = 0
KCO1 051355Z 10009KT 28/13 A2998 RMK A01 T02810134  RH  040%=      5-min Rain = 0
KCO1 051356Z 09007KT 28/13 A2998 RMK A01 T02810134  RH  040%=      5-min Rain = 0
KCO1 051357Z 10008KT 28/13 A2997 RMK A01 T02810134  RH  041%=      5-min Rain = 0
KCO1 051358Z 11007KT 28/14 A2997 RMK A01 T02820135  RH  040%=      5-min Rain = 0
KCO1 051359Z 10009KT 28/14 A2998 RMK A01 T02840135  RH  040%=      5-min Rain = 0
KCO1 051400Z 10008KT 29/13 A2998 RMK A01 T02850134  RH  040%=      5-min Rain = 0
KCO1 051401Z 10009KT 28/13 A2998 RMK A01 T02840134  RH  040%=      5-min Rain = 0
KCO1 051402Z 10011KT 28/13 A2998 RMK A01 T02830133  RH  040%=      5-min Rain = 0
KCO1 051403Z 10008KT 28/13 A2998 RMK A01 T02800133  RH  040%=      5-min Rain = 0
KCO1 051404Z 10007KT 28/13 A2998 RMK A01 T02790134  RH  041%=      5-min Rain = 0
KCO1 051405Z 10007KT 28/13 A2998 RMK A01 T02780134  RH  041%=      5-min Rain = 0
KCO1 051406Z 11008KT 28/14 A2998 RMK A01 T02790135  RH  041%=      5-min Rain = 0
KCO1 051407Z 10009KT 28/13 A2998 RMK A01 T02780134  RH  041%=      5-min Rain = 0
KCO1 051408Z 10008KT 28/13 A2998 RMK A01 T02770133  RH  041%=      5-min Rain = 0
KCO1 051409Z 10009KT 28/13 A2997 RMK A01 T02770133  RH  041%=      5-min Rain = 0
KCO1 051410Z 10012KT 28/13 A2997 RMK A01 T02780133  RH  041%=      5-min Rain = 0
KCO1 051411Z 10011KT 28/13 A2997 RMK A01 T02780133  RH  041%=      5-min Rain = 0
KCO1 051412Z 10010KT 28/13 A2997 RMK A01 T02780133  RH  041%=      5-min Rain = 0
KCO1 051413Z 10011KT 28/13 A2997 RMK A01 T02780133  RH  041%=      5-min Rain = 0
KCO1 051414Z 10009KT 28/13 A2997 RMK A01 T02790133  RH  041%=      5-min Rain = 0
KCO1 051415Z 10009KT 28/13 A2997 RMK A01 T02810134  RH  041%=      5-min Rain = 0
KCO1 051416Z 10007KT 28/14 A2997 RMK A01 T02830136  RH  040%=      5-min Rain = 0
KCO1 051417Z 09009KT 29/14 A2997 RMK A01 T02860136  RH  040%=      5-min Rain = 0
KCO1 051418Z 10009KT 29/14 A2997 RMK A01 T02880135  RH  039%=      5-min Rain = 0
KCO1 051419Z 09009KT 29/14 A2998 RMK A01 T02900136  RH  039%=      5-min Rain = 0
KCO1 051420Z 10008KT 29/14 A2998 RMK A01 T02920136  RH  038%=      5-min Rain = 0
KCO1 051421Z 09010KT 29/14 A2998 RMK A01 T02930136  RH  038%=      5-min Rain = 0
KCO1 051422Z 09012KT 29/14 A2998 RMK A01 T02940136  RH  038%=      5-min Rain = 0
KCO1 051423Z 09010KT 29/14 A2998 RMK A01 T02940135  RH  038%=      5-min Rain = 0
KCO1 051424Z 08011KT 29/14 A2998 RMK A01 T02920135  RH  038%=      5-min Rain = 0
KCO1 051425Z 08010KT 29/13 A2998 RMK A01 T02900133  RH  038%=      5-min Rain = 0
KCO1 051426Z 08010KT 29/13 A2998 RMK A01 T02870134  RH  039%=      5-min Rain = 0
KCO1 051427Z 09010KT 29/13 A2998 RMK A01 T02860134  RH  039%=      5-min Rain = 0
KCO1 051428Z 08011KT 29/13 A2998 RMK A01 T02850133  RH  039%=      5-min Rain = 0
KCO1 051429Z 09010KT 29/13 A2998 RMK A01 T02850133  RH  039%=      5-min Rain = 0
KCO1 051430Z 10011KT 29/13 A2998 RMK A01 T02850134  RH  039%=      5-min Rain = 0
KCO1 051431Z 10011KT 29/13 A2998 RMK A01 T02850133  RH  039%=      5-min Rain = 0
KCO1 051432Z 10008KT 29/13 A2998 RMK A01 T02850133  RH  039%=      5-min Rain = 0
KCO1 051433Z 09008KT 29/14 A2998 RMK A01 T02860136  RH  040%=      5-min Rain = 0
KCO1 051434Z 09009KT 29/14 A2998 RMK A01 T02890135  RH  039%=      5-min Rain = 0
KCO1 051435Z 10007KT 29/14 A2998 RMK A01 T02910136  RH  039%=      5-min Rain = 0
KCO1 051436Z 10008KT 29/14 A2998 RMK A01 T02920136  RH  038%=      5-min Rain = 0
KCO1 051437Z 09007KT 29/14 A2998 RMK A01 T02920135  RH  038%=      5-min Rain = 0
KCO1 051438Z 10006KT 29/14 A2998 RMK A01 T02900135  RH  038%=      5-min Rain = 0
KCO1 051439Z 10007KT 29/14 A2998 RMK A01 T02900136  RH  039%=      5-min Rain = 0
KCO1 051440Z 11009KT 29/14 A2997 RMK A01 T02900135  RH  039%=      5-min Rain = 0
KCO1 051441Z 10008KT 29/13 A2997 RMK A01 T02890133  RH  039%=      5-min Rain = 0
KCO1 051442Z 10009KT 29/13 A2997 RMK A01 T02880134  RH  039%=      5-min Rain = 0
KCO1 051443Z 09009KT 29/13 A2998 RMK A01 T02870134  RH  039%=      5-min Rain = 0
KCO1 051444Z 09010KT 29/13 A2998 RMK A01 T02880133  RH  039%=      5-min Rain = 0
KCO1 051445Z 09009KT 29/13 A2998 RMK A01 T02870133  RH  039%=      5-min Rain = 0
KCO1 051446Z 08008KT 29/13 A2998 RMK A01 T02880133  RH  039%=      5-min Rain = 0
KCO1 051447Z 08008KT 29/13 A2998 RMK A01 T02880133  RH  038%=      5-min Rain = 0
KCO1 051448Z 08010KT 29/13 A2998 RMK A01 T02890132  RH  038%=      5-min Rain = 0
KCO1 051449Z 08007KT 29/13 A2998 RMK A01 T02900133  RH  038%=      5-min Rain = 0
KCO1 051450Z 08008KT 29/13 A2998 RMK A01 T02910133  RH  038%=      5-min Rain = 0
KCO1 051451Z 08010KT 29/13 A2998 RMK A01 T02920134  RH  038%=      5-min Rain = 0
KCO1 051452Z 07009KT 29/13 A2998 RMK A01 T02930133  RH  037%=      5-min Rain = 0
KCO1 051453Z 08009KT 29/13 A2998 RMK A01 T02940134  RH  037%=      5-min Rain = 0
KCO1 051454Z 08010KT 29/13 A2998 RMK A01 T02930133  RH  038%=      5-min Rain = 0
KCO1 051455Z 08006KT 29/13 A2998 RMK A01 T02930133  RH  037%=      5-min Rain = 0
KCO1 051456Z 07009KT 29/13 A2998 RMK A01 T02940134  RH  038%=      5-min Rain = 0
KCO1 051457Z 07010KT 30/13 A2998 RMK A01 T02960134  RH  037%=      5-min Rain = 0
KCO1 051458Z 08009KT 30/13 A2998 RMK A01 T02970133  RH  037%=      5-min Rain = 0
KCO1 051459Z 08007KT 30/13 A2998 RMK A01 T02970134  RH  037%=      5-min Rain = 0
KCO1 051500Z 08008KT 30/13 A2998 RMK A01 T02980134  RH  037%=      5-min Rain = 0
KCO1 051501Z 08007KT 30/13 A2998 RMK A01 T03000134  RH  036%=      5-min Rain = 0
KCO1 051502Z 09007KT 30/14 A2997 RMK A01 T03010136  RH  036%=      5-min Rain = 0
KCO1 051503Z 08009KT 30/14 A2997 RMK A01 T03030136  RH  036%=      5-min Rain = 0
KCO1 051504Z 07011KT 31/13 A2998 RMK A01 T03050134  RH  035%=      5-min Rain = 0
KCO1 051505Z 07010KT 31/13 A2998 RMK A01 T03060133  RH  035%=      5-min Rain = 0
KCO1 051506Z 08009KT 31/13 A2998 RMK A01 T03070134  RH  035%=      5-min Rain = 0
KCO1 051507Z 07009KT 31/13 A2998 RMK A01 T03070134  RH  035%=      5-min Rain = 0
KCO1 051508Z 08009KT 31/13 A2997 RMK A01 T03060133  RH  035%=      5-min Rain = 0
KCO1 051509Z 09010KT 31/13 A2997 RMK A01 T03060134  RH  035%=      5-min Rain = 0
KCO1 051510Z 08010KT 31/14 A2997 RMK A01 T03070136  RH  035%=      5-min Rain = 0
KCO1 051511Z 07008KT 31/14 A2997 RMK A01 T03070137  RH  035%=      5-min Rain = 0
KCO1 051512Z 07008KT 31/14 A2997 RMK A01 T03080138  RH  036%=      5-min Rain = 0
KCO1 051513Z 07009KT 31/14 A2997 RMK A01 T03090137  RH  035%=      5-min Rain = 0
KCO1 051514Z 07008KT 31/14 A2997 RMK A01 T03100138  RH  035%=      5-min Rain = 0
KCO1 051515Z 07010KT 31/14 A2997 RMK A01 T03110138  RH  035%=      5-min Rain = 0
KCO1 051516Z 07011KT 31/14 A2997 RMK A01 T03110135  RH  034%=      5-min Rain = 0
KCO1 051517Z 05008KT 31/13 A2997 RMK A01 T03090134  RH  034%=      5-min Rain = 0
KCO1 051518Z 06010KT 31/14 A2997 RMK A01 T03080136  RH  035%=      5-min Rain = 0
KCO1 051519Z 06009KT 31/13 A2997 RMK A01 T03090133  RH  034%=      5-min Rain = 0
KCO1 051520Z 08010KT 31/13 A2997 RMK A01 T03090134  RH  034%=      5-min Rain = 0
KCO1 051521Z 08007KT 31/13 A2997 RMK A01 T03090132  RH  034%=      5-min Rain = 0
KCO1 051522Z 08010KT 31/13 A2997 RMK A01 T03090134  RH  034%=      5-min Rain = 0
KCO1 051523Z 08011KT 31/13 A2997 RMK A01 T03100132  RH  034%=      5-min Rain = 0
KCO1 051524Z 09010KT 31/13 A2997 RMK A01 T03080131  RH  034%=      5-min Rain = 0
KCO1 051525Z 09010KT 31/13 A2997 RMK A01 T03070133  RH  035%=      5-min Rain = 0
KCO1 051526Z 08008KT 31/13 A2997 RMK A01 T03070132  RH  034%=      5-min Rain = 0
KCO1 051527Z 07007KT 31/13 A2997 RMK A01 T03080134  RH  035%=      5-min Rain = 0
KCO1 051528Z 07012KT 31/13 A2997 RMK A01 T03100134  RH  034%=      5-min Rain = 0
KCO1 051529Z 08010KT 31/13 A2997 RMK A01 T03110134  RH  034%=      5-min Rain = 0
KCO1 051530Z 07010KT 31/13 A2997 RMK A01 T03100133  RH  034%=      5-min Rain = 0
KCO1 051531Z 07009KT 31/13 A2997 RMK A01 T03090134  RH  034%=      5-min Rain = 0
KCO1 051532Z 07009KT 31/13 A2997 RMK A01 T03080134  RH  035%=      5-min Rain = 0
KCO1 051533Z 07009KT 31/14 A2997 RMK A01 T03090135  RH  035%=      5-min Rain = 0
KCO1 051534Z 07010KT 31/14 A2997 RMK A01 T03110136  RH  034%=      5-min Rain = 0
KCO1 051535Z 08011KT 31/14 A2997 RMK A01 T03130135  RH  034%=      5-min Rain = 0
KCO1 051536Z 08009KT 31/14 A2997 RMK A01 T03120135  RH  034%=      5-min Rain = 0
KCO1 051537Z 07008KT 31/14 A2997 RMK A01 T03110135  RH  034%=      5-min Rain = 0
KCO1 051538Z 09007KT 31/14 A2997 RMK A01 T03120137  RH  034%=      5-min Rain = 0
KCO1 051539Z 09008KT 32/14 A2997 RMK A01 T03160138  RH  034%=      5-min Rain = 0
KCO1 051540Z 10008KT 32/14 A2997 RMK A01 T03170135  RH  033%=      5-min Rain = 0
KCO1 051541Z 08007KT 32/13 A2997 RMK A01 T03160134  RH  033%=      5-min Rain = 0
KCO1 051542Z 08007G12KT 32/13 A2997 RMK A01 T03150134  RH  033%=      5-min Rain = 0
KCO1 051543Z 09010KT 32/14 A2997 RMK A01 T03160135  RH  033%=      5-min Rain = 0
KCO1 051544Z 09007KT 32/13 A2997 RMK A01 T03170134  RH  033%=      5-min Rain = 0
KCO1 051545Z 08007KT 32/14 A2997 RMK A01 T03160135  RH  033%=      5-min Rain = 0
KCO1 051546Z 07005KT 32/13 A2997 RMK A01 T03170134  RH  033%=      5-min Rain = 0
KCO1 051547Z 07007KT 32/14 A2997 RMK A01 T03180135  RH  033%=      5-min Rain = 0
KCO1 051548Z 08007KT 32/14 A2997 RMK A01 T03190135  RH  033%=      5-min Rain = 0
KCO1 051549Z 09007KT 32/14 A2997 RMK A01 T03190136  RH  033%=      5-min Rain = 0
KCO1 051550Z 11007KT 32/14 A2997 RMK A01 T03220138  RH  033%=      5-min Rain = 0
KCO1 051551Z 11007KT 33/14 A2997 RMK A01 T03250138  RH  032%=      5-min Rain = 0
KCO1 051552Z 12006KT 33/14 A2997 RMK A01 T03250138  RH  032%=      5-min Rain = 0
KCO1 051553Z 13007KT 32/14 A2997 RMK A01 T03230137  RH  032%=      5-min Rain = 0
KCO1 051554Z 12006KT 32/14 A2997 RMK A01 T03220136  RH  032%=      5-min Rain = 0
KCO1 051555Z 12008KT 32/14 A2997 RMK A01 T03220138  RH  033%=      5-min Rain = 0
KCO1 051556Z 10008KT 32/14 A2997 RMK A01 T03220137  RH  032%=      5-min Rain = 0
KCO1 051557Z 11006KT 32/14 A2997 RMK A01 T03220137  RH  032%=      5-min Rain = 0
KCO1 051558Z 10005KT 32/14 A2996 RMK A01 T03230136  RH  032%=      5-min Rain = 0
KCO1 051559Z 11005KT 32/14 A2996 RMK A01 T03230138  RH  032%=      5-min Rain = 0
KCO1 051600Z 10006KT 33/14 A2996 RMK A01 T03250138  RH  032%=      5-min Rain = 0
KCO1 051601Z 13009KT 33/14 A2996 RMK A01 T03260136  RH  032%=      5-min Rain = 0
KCO1 051602Z 12009KT 32/14 A2996 RMK A01 T03240136  RH  032%=      5-min Rain = 0
KCO1 051603Z 11009KT 32/14 A2996 RMK A01 T03220136  RH  032%=      5-min Rain = 0
KCO1 051604Z 11006KT 32/14 A2996 RMK A01 T03200135  RH  032%=      5-min Rain = 0
KCO1 051605Z 12008KT 32/14 A2996 RMK A01 T03200137  RH  033%=      5-min Rain = 0
KCO1 051606Z 10008KT 32/14 A2996 RMK A01 T03220137  RH  032%=      5-min Rain = 0
KCO1 051607Z 12005KT 32/14 A2996 RMK A01 T03230136  RH  032%=      5-min Rain = 0
KCO1 051608Z 11007KT 32/13 A2996 RMK A01 T03220134  RH  032%=      5-min Rain = 0
KCO1 051609Z 10008KT 32/14 A2996 RMK A01 T03200135  RH  033%=      5-min Rain = 0
KCO1 051610Z 09006KT 32/13 A2996 RMK A01 T03170134  RH  033%=      5-min Rain = 0
KCO1 051611Z 10007KT 32/14 A2996 RMK A01 T03160135  RH  033%=      5-min Rain = 0
KCO1 051612Z 10011KT 32/14 A2996 RMK A01 T03160135  RH  033%=      5-min Rain = 0
KCO1 051613Z 10008KT 31/13 A2996 RMK A01 T03140133  RH  033%=      5-min Rain = 0
KCO1 051614Z 10007KT 31/14 A2996 RMK A01 T03130135  RH  034%=      5-min Rain = 0
KCO1 051615Z 10007KT 31/13 A2996 RMK A01 T03130134  RH  034%=      5-min Rain = 0
KCO1 051616Z 12005KT 31/14 A2996 RMK A01 T03140137  RH  034%=      5-min Rain = 0
KCO1 051617Z 12004KT 32/14 A2996 RMK A01 T03160138  RH  034%=      5-min Rain = 0
KCO1 051618Z 11007KT 32/14 A2996 RMK A01 T03180137  RH  033%=      5-min Rain = 0
KCO1 051619Z 10007KT 32/14 A2996 RMK A01 T03180135  RH  033%=      5-min Rain = 0
KCO1 051620Z 10006KT 32/14 A2996 RMK A01 T03200137  RH  033%=      5-min Rain = 0
KCO1 051621Z 11005KT 32/14 A2996 RMK A01 T03240141  RH  033%=      5-min Rain = 0
KCO1 051622Z 11008KT 33/14 A2995 RMK A01 T03290141  RH  032%=      5-min Rain = 0
KCO1 051623Z 12011KT 33/14 A2995 RMK A01 T03290139  RH  032%=      5-min Rain = 0
KCO1 051624Z 13008KT 33/14 A2996 RMK A01 T03260137  RH  032%=      5-min Rain = 0
KCO1 051625Z 12008KT 32/14 A2996 RMK A01 T03230137  RH  032%=      5-min Rain = 0
KCO1 051626Z 13005KT 32/14 A2996 RMK A01 T03210137  RH  033%=      5-min Rain = 0
KCO1 051627Z 13005KT 32/14 A2996 RMK A01 T03210139  RH  033%=      5-min Rain = 0
KCO1 051628Z 12006KT 32/14 A2996 RMK A01 T03220138  RH  033%=      5-min Rain = 0
KCO1 051629Z 12006KT 32/14 A2996 RMK A01 T03230137  RH  032%=      5-min Rain = 0
KCO1 051630Z 10007KT 32/14 A2996 RMK A01 T03210137  RH  033%=      5-min Rain = 0
KCO1 051631Z 10006KT 32/14 A2996 RMK A01 T03200136  RH  033%=      5-min Rain = 0
KCO1 051632Z 13006KT 32/14 A2996 RMK A01 T03190136  RH  033%=      5-min Rain = 0
KCO1 051633Z 12007KT 32/14 A2996 RMK A01 T03180136  RH  033%=      5-min Rain = 0
KCO1 051634Z 13007KT 32/14 A2996 RMK A01 T03190138  RH  033%=      5-min Rain = 0
KCO1 051635Z 13007KT 32/14 A2995 RMK A01 T03190137  RH  033%=      5-min Rain = 0
KCO1 051636Z 14008KT 32/14 A2995 RMK A01 T03200138  RH  033%=      5-min Rain = 0
KCO1 051637Z 12008KT 32/14 A2995 RMK A01 T03220139  RH  033%=      5-min Rain = 0
KCO1 051638Z 13007KT 32/14 A2995 RMK A01 T03230138  RH  033%=      5-min Rain = 0
KCO1 051639Z 13007KT 32/14 A2995 RMK A01 T03230139  RH  033%=      5-min Rain = 0
KCO1 051640Z 09005KT 32/14 A2995 RMK A01 T03230139  RH  033%=      5-min Rain = 0
KCO1 051641Z 10007KT 33/14 A2995 RMK A01 T03250140  RH  033%=      5-min Rain = 0
KCO1 051642Z 10010KT 33/14 A2995 RMK A01 T03270139  RH  032%=      5-min Rain = 0
KCO1 051643Z 10008KT 33/14 A2995 RMK A01 T03270137  RH  032%=      5-min Rain = 0
KCO1 051644Z 11008KT 33/14 A2995 RMK A01 T03250138  RH  032%=      5-min Rain = 0
KCO1 051645Z 12008KT 33/14 A2995 RMK A01 T03250137  RH  032%=      5-min Rain = 0
KCO1 051646Z 12006KT 33/14 A2995 RMK A01 T03250137  RH  032%=      5-min Rain = 0
KCO1 051647Z 12005KT 33/14 A2995 RMK A01 T03260138  RH  032%=      5-min Rain = 0
KCO1 051648Z 11006KT 33/14 A2995 RMK A01 T03280139  RH  032%=      5-min Rain = 0
KCO1 051649Z 11007KT 33/14 A2995 RMK A01 T03310140  RH  032%=      5-min Rain = 0
KCO1 051650Z 10009KT 34/14 A2995 RMK A01 T03350141  RH  031%=      5-min Rain = 0
KCO1 051651Z 11009KT 34/14 A2995 RMK A01 T03390141  RH  030%=      5-min Rain = 0
KCO1 051652Z 11007KT 34/14 A2995 RMK A01 T03420141  RH  030%=      5-min Rain = 0
KCO1 051653Z 09010KT 34/14 A2995 RMK A01 T03430140  RH  030%=      5-min Rain = 0
KCO1 051654Z 12007KT 34/14 A2995 RMK A01 T03410139  RH  030%=      5-min Rain = 0
KCO1 051655Z 13008KT 34/14 A2995 RMK A01 T03400140  RH  030%=      5-min Rain = 0
KCO1 051656Z 11009KT 34/14 A2995 RMK A01 T03390137  RH  030%=      5-min Rain = 0
KCO1 051657Z 13009KT 34/14 A2995 RMK A01 T03370137  RH  030%=      5-min Rain = 0
KCO1 051658Z 13007KT 34/14 A2995 RMK A01 T03360136  RH  030%=      5-min Rain = 0
KCO1 051659Z 09006KT 34/14 A2995 RMK A01 T03350136  RH  030%=      5-min Rain = 0
KCO1 051700Z 09005KT 33/14 A2995 RMK A01 T03340135  RH  030%=      5-min Rain = 0
KCO1 051701Z 12007KT 33/14 A2995 RMK A01 T03340136  RH  030%=      5-min Rain = 0
KCO1 051702Z 13009KT 33/14 A2995 RMK A01 T03340137  RH  030%=      5-min Rain = 0
KCO1 051703Z 13009KT 33/14 A2995 RMK A01 T03330137  RH  030%=      5-min Rain = 0
KCO1 051704Z 13008KT 33/14 A2995 RMK A01 T03310136  RH  031%=      5-min Rain = 0
KCO1 051705Z 13007KT 33/14 A2994 RMK A01 T03310136  RH  031%=      5-min Rain = 0
KCO1 051706Z 12007KT 33/14 A2995 RMK A01 T03300137  RH  031%=      5-min Rain = 0
KCO1 051707Z 15007KT 33/14 A2994 RMK A01 T03300136  RH  031%=      5-min Rain = 0
KCO1 051708Z 14008KT 33/14 A2994 RMK A01 T03290136  RH  031%=      5-min Rain = 0
KCO1 051709Z 14007KT 33/14 A2994 RMK A01 T03300136  RH  031%=      5-min Rain = 0
KCO1 051710Z 12007KT 33/14 A2994 RMK A01 T03320137  RH  031%=      5-min Rain = 0
KCO1 051711Z 10008KT 33/14 A2994 RMK A01 T03320136  RH  030%=      5-min Rain = 0
KCO1 051712Z 10008KT 33/14 A2994 RMK A01 T03320136  RH  031%=      5-min Rain = 0
KCO1 051713Z 12009KT 33/14 A2994 RMK A01 T03310135  RH  030%=      5-min Rain = 0
KCO1 051714Z 11008KT 33/14 A2994 RMK A01 T03300135  RH  031%=      5-min Rain = 0
KCO1 051715Z 12007KT 33/14 A2994 RMK A01 T03300135  RH  031%=      5-min Rain = 0
KCO1 051716Z 12007KT 33/14 A2994 RMK A01 T03300135  RH  031%=      5-min Rain = 0
KCO1 051717Z 10006KT 33/14 A2994 RMK A01 T03290136  RH  031%=      5-min Rain = 0
KCO1 051718Z 11007KT 33/14 A2994 RMK A01 T03310137  RH  031%=      5-min Rain = 0
KCO1 051719Z 12008KT 33/14 A2994 RMK A01 T03330136  RH  031%=      5-min Rain = 0
KCO1 051720Z 11006KT 34/14 A2994 RMK A01 T03350138  RH  030%=      5-min Rain = 0
KCO1 051721Z 12006KT 34/14 A2994 RMK A01 T03370140  RH  030%=      5-min Rain = 0
KCO1 051722Z 14006KT 34/14 A2994 RMK A01 T03400137  RH  029%=      5-min Rain = 0
KCO1 051723Z 12006KT 34/14 A2994 RMK A01 T03390136  RH  030%=      5-min Rain = 0
KCO1 051724Z 10007KT 34/14 A2994 RMK A01 T03380136  RH  030%=      5-min Rain = 0
KCO1 051725Z 12007KT 34/14 A2994 RMK A01 T03370137  RH  030%=      5-min Rain = 0
KCO1 051726Z 12008KT 34/14 A2994 RMK A01 T03370136  RH  030%=      5-min Rain = 0
KCO1 051727Z 10008KT 34/14 A2994 RMK A01 T03360137  RH  030%=      5-min Rain = 0
KCO1 051728Z 11007KT 34/14 A2994 RMK A01 T03370136  RH  030%=      5-min Rain = 0
KCO1 051729Z 12007KT 34/14 A2994 RMK A01 T03400139  RH  030%=      5-min Rain = 0
KCO1 051730Z 12005KT 34/14 A2994 RMK A01 T03420138  RH  029%=      5-min Rain = 0
KCO1 051731Z 13008KT 35/14 A2994 RMK A01 T03450141  RH  029%=      5-min Rain = 0
KCO1 051732Z 12008KT 35/14 A2994 RMK A01 T03460138  RH  029%=      5-min Rain = 0
KCO1 051733Z 12005KT 34/14 A2994 RMK A01 T03420136  RH  029%=      5-min Rain = 0
KCO1 051734Z 12006KT 34/14 A2994 RMK A01 T03400137  RH  029%=      5-min Rain = 0
KCO1 051735Z 12006KT 34/14 A2994 RMK A01 T03390137  RH  030%=      5-min Rain = 0
KCO1 051736Z 11007KT 34/14 A2994 RMK A01 T03380137  RH  030%=      5-min Rain = 0
KCO1 051737Z 11006KT 34/14 A2994 RMK A01 T03410140  RH  030%=      5-min Rain = 0
KCO1 051738Z 10006KT 35/14 A2994 RMK A01 T03480143  RH  029%=      5-min Rain = 0
KCO1 051739Z 11004KT 36/14 A2994 RMK A01 T03550143  RH  028%=      5-min Rain = 0
KCO1 051740Z 10003KT 36/14 A2994 RMK A01 T03590140  RH  027%=      5-min Rain = 0
KCO1 051741Z 09005KT 36/14 A2994 RMK A01 T03600139  RH  027%=      5-min Rain = 0
KCO1 051742Z 10003KT 36/14 A2994 RMK A01 T03570138  RH  027%=      5-min Rain = 0
KCO1 051743Z 12005KT 36/14 A2994 RMK A01 T03570139  RH  027%=      5-min Rain = 0
KCO1 051744Z 14006KT 36/14 A2994 RMK A01 T03590139  RH  027%=      5-min Rain = 0
KCO1 051745Z 13004KT 36/14 A2994 RMK A01 T03590140  RH  027%=      5-min Rain = 0
KCO1 051746Z 12008KT 36/14 A2994 RMK A01 T03600142  RH  027%=      5-min Rain = 0
KCO1 051747Z 12004KT 36/14 A2994 RMK A01 T03580137  RH  027%=      5-min Rain = 0
KCO1 051748Z 09005KT 35/14 A2994 RMK A01 T03520137  RH  027%=      5-min Rain = 0
KCO1 051749Z 09007KT 35/14 A2994 RMK A01 T03510137  RH  028%=      5-min Rain = 0
KCO1 051750Z 09008G13KT 35/14 A2994 RMK A01 T03500138  RH  028%=      5-min Rain = 0
KCO1 051751Z 11009KT 35/14 A2994 RMK A01 T03490137  RH  028%=      5-min Rain = 0
KCO1 051752Z 09007KT 35/14 A2994 RMK A01 T03460136  RH  028%=      5-min Rain = 0
KCO1 051753Z 10005KT 34/14 A2994 RMK A01 T03430136  RH  029%=      5-min Rain = 0
KCO1 051754Z 10005KT 34/14 A2994 RMK A01 T03420138  RH  029%=      5-min Rain = 0
KCO1 051755Z 08006KT 34/14 A2994 RMK A01 T03430138  RH  029%=      5-min Rain = 0
KCO1 051756Z 10007KT 34/14 A2994 RMK A01 T03440138  RH  029%=      5-min Rain = 0
KCO1 051757Z 11006KT 34/14 A2994 RMK A01 T03440138  RH  029%=      5-min Rain = 0
KCO1 051758Z 10006KT 35/14 A2993 RMK A01 T03450139  RH  029%=      5-min Rain = 0
KCO1 051759Z 10005KT 35/14 A2993 RMK A01 T03450139  RH  029%=      5-min Rain = 0
KCO1 051800Z 10005KT 35/14 A2993 RMK A01 T03460139  RH  029%=      5-min Rain = 0
KCO1 051801Z 09003KT 35/14 A2993 RMK A01 T03460138  RH  029%=      5-min Rain = 0
KCO1 051802Z 10004KT 35/14 A2993 RMK A01 T03460139  RH  029%=      5-min Rain = 0
KCO1 051803Z 11003KT 35/14 A2993 RMK A01 T03460138  RH  029%=      5-min Rain = 0
KCO1 051804Z 08003KT 35/14 A2993 RMK A01 T03460138  RH  029%=      5-min Rain = 0
KCO1 051805Z 13004KT 35/14 A2993 RMK A01 T03470140  RH  029%=      5-min Rain = 0
KCO1 051806Z 15005KT 35/14 A2993 RMK A01 T03500141  RH  029%=      5-min Rain = 0
KCO1 051807Z 18005KT 35/14 A2993 RMK A01 T03510140  RH  028%=      5-min Rain = 0
KCO1 051808Z 19008KT 35/14 A2993 RMK A01 T03540143  RH  028%=      5-min Rain = 0
KCO1 051809Z 18006KT 36/14 A2993 RMK A01 T03570140  RH  027%=      5-min Rain = 0
KCO1 051810Z 20005KT 36/14 A2993 RMK A01 T03580141  RH  027%=      5-min Rain = 0
KCO1 051811Z 20006KT 36/14 A2993 RMK A01 T03610140  RH  027%=      5-min Rain = 0
KCO1 051812Z 18005KT 36/14 A2993 RMK A01 T03610139  RH  027%=      5-min Rain = 0
KCO1 051813Z 15005KT 36/14 A2993 RMK A01 T03600140  RH  027%=      5-min Rain = 0
KCO1 051814Z 17006KT 36/14 A2993 RMK A01 T03600141  RH  027%=      5-min Rain = 0
KCO1 051815Z 18005KT 36/14 A2993 RMK A01 T03610139  RH  027%=      5-min Rain = 0
KCO1 051816Z 16007KT 36/14 A2993 RMK A01 T03610140  RH  027%=      5-min Rain = 0
KCO1 051817Z 17008KT 36/14 A2993 RMK A01 T03590139  RH  027%=      5-min Rain = 0
KCO1 051818Z 17005KT 36/14 A2993 RMK A01 T03580138  RH  027%=      5-min Rain = 0
KCO1 051819Z 18005KT 35/14 A2993 RMK A01 T03540137  RH  027%=      5-min Rain = 0
KCO1 051820Z 20005KT 35/14 A2993 RMK A01 T03520138  RH  028%=      5-min Rain = 0
KCO1 051821Z 21004KT 35/14 A2993 RMK A01 T03530137  RH  027%=      5-min Rain = 0
KCO1 051822Z 18005KT 35/14 A2993 RMK A01 T03530137  RH  027%=      5-min Rain = 0
KCO1 051823Z 19002KT 36/14 A2993 RMK A01 T03550137  RH  027%=      5-min Rain = 0
KCO1 051824Z 22002KT 36/14 A2992 RMK A01 T03560135  RH  027%=      5-min Rain = 0
KCO1 051825Z 17007KT 36/14 A2992 RMK A01 T03560137  RH  027%=      5-min Rain = 0
KCO1 051826Z 16004KT 35/14 A2992 RMK A01 T03540136  RH  027%=      5-min Rain = 0
KCO1 051827Z 17006KT 35/14 A2992 RMK A01 T03530138  RH  028%=      5-min Rain = 0
KCO1 051828Z 17008KT 36/14 A2992 RMK A01 T03560140  RH  027%=      5-min Rain = 0
KCO1 051829Z 15008KT 36/14 A2992 RMK A01 T03570140  RH  027%=      5-min Rain = 0
KCO1 051830Z 16005KT 36/14 A2992 RMK A01 T03570139  RH  027%=      5-min Rain = 0
KCO1 051831Z 17003KT 36/14 A2992 RMK A01 T03570137  RH  027%=      5-min Rain = 0
KCO1 051832Z 16002KT 36/14 A2992 RMK A01 T03570138  RH  027%=      5-min Rain = 0
KCO1 051833Z 16005KT 36/14 A2992 RMK A01 T03580139  RH  027%=      5-min Rain = 0
KCO1 051834Z 17006KT 36/14 A2992 RMK A01 T03610139  RH  027%=      5-min Rain = 0
KCO1 051835Z 14004KT 36/14 A2992 RMK A01 T03620141  RH  027%=      5-min Rain = 0
KCO1 051836Z 12003KT 37/14 A2992 RMK A01 T03650139  RH  026%=      5-min Rain = 0
KCO1 051837Z 17001KT 37/14 A2992 RMK A01 T03670139  RH  026%=      5-min Rain = 0
KCO1 051838Z 25002KT 37/14 A2992 RMK A01 T03690139  RH  025%=      5-min Rain = 0
KCO1 051839Z 24001KT 37/14 A2992 RMK A01 T03700140  RH  025%=      5-min Rain = 0
KCO1 051840Z 35000KT 37/14 A2992 RMK A01 T03710141  RH  025%=      5-min Rain = 0
KCO1 051841Z 05002KT 37/14 A2992 RMK A01 T03730143  RH  025%=      5-min Rain = 0
KCO1 051842Z 02003KT 38/14 A2992 RMK A01 T03770141  RH  025%=      5-min Rain = 0
KCO1 051843Z 03004KT 38/14 A2992 RMK A01 T03760139  RH  024%=      5-min Rain = 0
KCO1 051844Z 01003KT 37/14 A2992 RMK A01 T03730138  RH  025%=      5-min Rain = 0
KCO1 051845Z 02003KT 37/14 A2992 RMK A01 T03720139  RH  025%=      5-min Rain = 0
KCO1 051846Z 02004KT 37/14 A2992 RMK A01 T03710138  RH  025%=      5-min Rain = 0
KCO1 051847Z 36003KT 37/14 A2992 RMK A01 T03680137  RH  025%=      5-min Rain = 0
KCO1 051848Z 32002KT 37/14 A2992 RMK A01 T03670139  RH  026%=      5-min Rain = 0
KCO1 051849Z 29001KT 37/14 A2992 RMK A01 T03670140  RH  026%=      5-min Rain = 0
KCO1 051850Z 03002KT 37/14 A2992 RMK A01 T03680141  RH  026%=      5-min Rain = 0
KCO1 051851Z 13005KT 37/14 A2992 RMK A01 T03700140  RH  025%=      5-min Rain = 0
KCO1 051852Z 14003KT 37/14 A2992 RMK A01 T03740139  RH  025%=      5-min Rain = 0
KCO1 051853Z 14004KT 38/14 A2991 RMK A01 T03750138  RH  024%=      5-min Rain = 0
KCO1 051854Z 14003KT 38/14 A2991 RMK A01 T03750139  RH  025%=      5-min Rain = 0
KCO1 051855Z 17002KT 38/14 A2991 RMK A01 T03750138  RH  024%=      5-min Rain = 0
KCO1 051856Z 19002KT 38/14 A2991 RMK A01 T03760138  RH  024%=      5-min Rain = 0
KCO1 051857Z 23004KT 38/14 A2991 RMK A01 T03760138  RH  024%=      5-min Rain = 0
KCO1 051858Z 22004KT 38/14 A2991 RMK A01 T03760139  RH  024%=      5-min Rain = 0
KCO1 051859Z 19003KT 38/14 A2991 RMK A01 T03780138  RH  024%=      5-min Rain = 0
KCO1 051900Z 19003KT 38/14 A2991 RMK A01 T03790140  RH  024%=      5-min Rain = 0
KCO1 051901Z 21003KT 38/14 A2991 RMK A01 T03800138  RH  024%=      5-min Rain = 0
KCO1 051902Z 21005KT 38/14 A2991 RMK A01 T03770136  RH  024%=      5-min Rain = 0
KCO1 051903Z 20003KT 37/14 A2991 RMK A01 T03740136  RH  024%=      5-min Rain = 0
KCO1 051904Z 20004KT 37/14 A2991 RMK A01 T03730137  RH  025%=      5-min Rain = 0
KCO1 051905Z 16006KT 37/14 A2991 RMK A01 T03730137  RH  024%=      5-min Rain = 0
KCO1 051906Z 15005KT 38/14 A299 RMK A01 T03750138  RH  024%=      5-min Rain = 0
KCO1 051907Z 11005KT 38/14 A299 RMK A01 T03750135  RH  024%=      5-min Rain = 0
KCO1 051908Z 11008KT 38/14 A299 RMK A01 T03760137  RH  024%=      5-min Rain = 0
KCO1 051909Z 13005KT 38/14 A299 RMK A01 T03770135  RH  024%=      5-min Rain = 0
KCO1 051910Z 10007KT 38/14 A299 RMK A01 T03780135  RH  024%=      5-min Rain = 0
KCO1 051911Z 11005KT 38/14 A299 RMK A01 T03780137  RH  024%=      5-min Rain = 0
KCO1 051912Z 11006KT 38/14 A299 RMK A01 T03810139  RH  024%=      5-min Rain = 0
KCO1 051913Z 11004KT 38/14 A299 RMK A01 T03820137  RH  023%=      5-min Rain = 0
KCO1 051914Z 11001KT 38/14 A299 RMK A01 T03790136  RH  024%=      5-min Rain = 0
KCO1 051915Z 15002KT 38/13 A299 RMK A01 T03790134  RH  023%=      5-min Rain = 0
KCO1 051916Z 11003KT 38/14 A299 RMK A01 T03790136  RH  024%=      5-min Rain = 0
KCO1 051917Z 09002KT 38/14 A299 RMK A01 T03800135  RH  023%=      5-min Rain = 0
KCO1 051918Z 25000KT 38/13 A299 RMK A01 T03800134  RH  023%=      5-min Rain = 0
KCO1 051919Z 05002KT 38/13 A299 RMK A01 T03800134  RH  023%=      5-min Rain = 0
KCO1 051920Z 11003KT 38/13 A299 RMK A01 T03790134  RH  023%=      5-min Rain = 0
KCO1 051921Z 12003KT 38/13 A299 RMK A01 T03790132  RH  023%=      5-min Rain = 0
KCO1 051922Z 21001KT 38/13 A299 RMK A01 T03770133  RH  023%=      5-min Rain = 0
KCO1 051923Z 17001KT 38/14 A299 RMK A01 T03790138  RH  024%=      5-min Rain = 0
KCO1 051924Z 19002KT 38/13 A299 RMK A01 T03800133  RH  023%=      5-min Rain = 0
KCO1 051925Z 26002KT 38/13 A299 RMK A01 T03800134  RH  023%=      5-min Rain = 0
KCO1 051926Z 32001KT 38/13 A299 RMK A01 T03780133  RH  023%=      5-min Rain = 0
KCO1 051927Z 36002KT 38/13 A299 RMK A01 T03790134  RH  023%=      5-min Rain = 0
KCO1 051928Z 00000KT 38/13 A299 RMK A01 T03800133  RH  023%=      5-min Rain = 0
KCO1 051929Z 00004KT 38/13 A299 RMK A01 T03800133  RH  023%=      5-min Rain = 0
KCO1 051930Z 05006KT 38/13 A299 RMK A01 T03800134  RH  023%=      5-min Rain = 0
KCO1 051931Z 04005KT 38/14 A299 RMK A01 T03790135  RH  023%=      5-min Rain = 0
KCO1 051932Z 04004KT 38/13 A299 RMK A01 T03780132  RH  023%=      5-min Rain = 0
KCO1 051933Z 03003KT 37/13 A299 RMK A01 T03740132  RH  024%=      5-min Rain = 0
KCO1 051934Z 31004KT 37/13 A2989 RMK A01 T03730133  RH  024%=      5-min Rain = 0
KCO1 051935Z 30005KT 37/13 A2989 RMK A01 T03720134  RH  024%=      5-min Rain = 0
KCO1 051936Z 30004KT 37/13 A2989 RMK A01 T03690133  RH  025%=      5-min Rain = 0
KCO1 051937Z 29003KT 37/14 A2989 RMK A01 T03680135  RH  025%=      5-min Rain = 0
KCO1 051938Z 29004KT 37/14 A2989 RMK A01 T03690135  RH  025%=      5-min Rain = 0
KCO1 051939Z 29004KT 37/14 A2989 RMK A01 T03710135  RH  024%=      5-min Rain = 0
KCO1 051940Z 28004KT 37/14 A2989 RMK A01 T03730138  RH  025%=      5-min Rain = 0
KCO1 051941Z 29004KT 37/14 A2989 RMK A01 T03740135  RH  024%=      5-min Rain = 0
KCO1 051942Z 30005KT 38/14 A2989 RMK A01 T03750139  RH  025%=      5-min Rain = 0
KCO1 051943Z 31004KT 38/14 A2989 RMK A01 T03770136  RH  024%=      5-min Rain = 0
KCO1 051944Z 31002KT 38/14 A2989 RMK A01 T03770137  RH  024%=      5-min Rain = 0
KCO1 051945Z 32001KT 38/13 A2989 RMK A01 T03770134  RH  024%=      5-min Rain = 0
KCO1 051946Z 25001KT 38/14 A2989 RMK A01 T03770135  RH  024%=      5-min Rain = 0
KCO1 051947Z 21002KT 38/13 A2989 RMK A01 T03790134  RH  023%=      5-min Rain = 0
KCO1 051948Z 19005KT 38/14 A2989 RMK A01 T03810135  RH  023%=      5-min Rain = 0
KCO1 051949Z 20004KT 38/14 A2989 RMK A01 T03830136  RH  023%=      5-min Rain = 0
KCO1 051950Z 20004KT 38/13 A2989 RMK A01 T03820134  RH  023%=      5-min Rain = 0
KCO1 051951Z 24002KT 38/13 A2989 RMK A01 T03830133  RH  023%=      5-min Rain = 0
KCO1 051952Z 12004KT 38/13 A2989 RMK A01 T03840134  RH  023%=      5-min Rain = 0
KCO1 051953Z 11004KT 38/14 A2989 RMK A01 T03840136  RH  023%=      5-min Rain = 0
KCO1 051954Z 08003KT 39/13 A2989 RMK A01 T03860133  RH  022%=      5-min Rain = 0
KCO1 051955Z 19004KT 39/14 A2988 RMK A01 T03860136  RH  023%=      5-min Rain = 0
KCO1 051956Z 20004KT 39/14 A2988 RMK A01 T03870135  RH  022%=      5-min Rain = 0
KCO1 051957Z 22003KT 39/13 A2988 RMK A01 T03880134  RH  022%=      5-min Rain = 0
KCO1 051958Z 15003KT 39/13 A2988 RMK A01 T03870133  RH  022%=      5-min Rain = 0
KCO1 051959Z 19004KT 39/14 A2988 RMK A01 T03890135  RH  022%=      5-min Rain = 0
KCO1 052000Z 13004KT 39/14 A2988 RMK A01 T03920137  RH  022%=      5-min Rain = 0
KCO1 052001Z 13004KT 39/14 A2988 RMK A01 T03940136  RH  022%=      5-min Rain = 0
KCO1 052002Z 12003KT 40/14 A2988 RMK A01 T03960137  RH  022%=      5-min Rain = 0
KCO1 052003Z 15004KT 40/14 A2988 RMK A01 T03970135  RH  021%=      5-min Rain = 0
KCO1 052004Z 22005KT 39/13 A2988 RMK A01 T03940133  RH  021%=      5-min Rain = 0
KCO1 052005Z 22003KT 39/14 A2988 RMK A01 T03930135  RH  022%=      5-min Rain = 0
KCO1 052006Z 23003KT 40/14 A2988 RMK A01 T03950136  RH  022%=      5-min Rain = 0
KCO1 052007Z 22003KT 40/13 A2988 RMK A01 T03970133  RH  021%=      5-min Rain = 0
KCO1 052008Z 24003KT 40/14 A2988 RMK A01 T03950135  RH  021%=      5-min Rain = 0
KCO1 052009Z 25002KT 39/13 A2988 RMK A01 T03940131  RH  021%=      5-min Rain = 0
KCO1 052010Z 20002KT 39/13 A2987 RMK A01 T03910132  RH  022%=      5-min Rain = 0
KCO1 052011Z 26001KT 39/13 A2987 RMK A01 T03900134  RH  022%=      5-min Rain = 0
KCO1 052012Z 09000KT 39/13 A2987 RMK A01 T03920134  RH  022%=      5-min Rain = 0
KCO1 052013Z 10001KT 40/14 A2987 RMK A01 T03950135  RH  022%=      5-min Rain = 0
KCO1 052014Z 12003KT 40/13 A2987 RMK A01 T03970131  RH  021%=      5-min Rain = 0
KCO1 052015Z 14001KT 40/13 A2987 RMK A01 T03950129  RH  021%=      5-min Rain = 0
KCO1 052016Z 03001KT 39/13 A2987 RMK A01 T03930130  RH  021%=      5-min Rain = 0
KCO1 052017Z 04003KT 39/13 A2987 RMK A01 T03930130  RH  021%=      5-min Rain = 0
KCO1 052018Z 02003KT 39/13 A2987 RMK A01 T03920126  RH  021%=      5-min Rain = 0
KCO1 052019Z 02005KT 39/13 A2987 RMK A01 T03900125  RH  021%=      5-min Rain = 0
KCO1 052020Z 01004KT 39/13 A2987 RMK A01 T03890127  RH  021%=      5-min Rain = 0
KCO1 052021Z 00003KT 39/12 A2987 RMK A01 T03880123  RH  021%=      5-min Rain = 0
KCO1 052022Z 01003KT 39/12 A2987 RMK A01 T03880123  RH  021%=      5-min Rain = 0
KCO1 052023Z 03001KT 39/12 A2987 RMK A01 T03880123  RH  021%=      5-min Rain = 0
KCO1 052024Z 01002KT 39/13 A2987 RMK A01 T03900126  RH  021%=      5-min Rain = 0
KCO1 052025Z 02006KT 39/13 A2987 RMK A01 T03920126  RH  021%=      5-min Rain = 0
KCO1 052026Z 02006KT 39/13 A2987 RMK A01 T03940126  RH  020%=      5-min Rain = 0
KCO1 052027Z 33004KT 39/13 A2986 RMK A01 T03930126  RH  020%=      5-min Rain = 0
KCO1 052028Z 33006KT 39/13 A2986 RMK A01 T03900125  RH  021%=      5-min Rain = 0
KCO1 052029Z 33005KT 39/12 A2986 RMK A01 T03880124  RH  021%=      5-min Rain = 0
KCO1 052030Z 35003KT 39/13 A2986 RMK A01 T03870125  RH  021%=      5-min Rain = 0
KCO1 052031Z 04007KT 39/13 A2986 RMK A01 T03880126  RH  021%=      5-min Rain = 0
KCO1 052032Z 05005KT 39/12 A2986 RMK A01 T03880123  RH  021%=      5-min Rain = 0
KCO1 052033Z 06004KT 39/12 A2986 RMK A01 T03880122  RH  021%=      5-min Rain = 0
KCO1 052034Z 06004KT 39/12 A2986 RMK A01 T03880121  RH  020%=      5-min Rain = 0
KCO1 052035Z 04004KT 39/12 A2986 RMK A01 T03910123  RH  020%=      5-min Rain = 0
KCO1 052036Z 33004KT 39/12 A2986 RMK A01 T03940124  RH  020%=      5-min Rain = 0
KCO1 052037Z 34005KT 39/12 A2986 RMK A01 T03940124  RH  020%=      5-min Rain = 0
KCO1 052038Z 01007KT 39/12 A2986 RMK A01 T03940121  RH  020%=      5-min Rain = 0
KCO1 052039Z 01005KT 39/12 A2986 RMK A01 T03920117  RH  019%=      5-min Rain = 0
KCO1 052040Z 36006KT 39/12 A2986 RMK A01 T03920119  RH  020%=      5-min Rain = 0
KCO1 052041Z 02007KT 39/12 A2986 RMK A01 T03920121  RH  020%=      5-min Rain = 0
KCO1 052042Z 01005KT 39/12 A2986 RMK A01 T03910122  RH  020%=      5-min Rain = 0
KCO1 052043Z 04003KT 39/12 A2986 RMK A01 T03900123  RH  020%=      5-min Rain = 0
KCO1 052044Z 08000KT 39/12 A2986 RMK A01 T03900123  RH  020%=      5-min Rain = 0
KCO1 052045Z 24001KT 39/12 A2986 RMK A01 T03900121  RH  020%=      5-min Rain = 0
KCO1 052046Z 28001KT 39/12 A2986 RMK A01 T03920123  RH  020%=      5-min Rain = 0
KCO1 052047Z 05003KT 40/12 A2986 RMK A01 T03960124  RH  020%=      5-min Rain = 0
KCO1 052048Z 07004KT 40/12 A2986 RMK A01 T03970122  RH  019%=      5-min Rain = 0
KCO1 052049Z 06004KT 40/12 A2985 RMK A01 T03990123  RH  020%=      5-min Rain = 0
KCO1 052050Z 02003KT 40/12 A2985 RMK A01 T03990124  RH  020%=      5-min Rain = 0
KCO1 052051Z 02004KT 40/13 A2985 RMK A01 T04000126  RH  020%=      5-min Rain = 0
KCO1 052052Z 04004KT 40/12 A2985 RMK A01 T04010123  RH  019%=      5-min Rain = 0
KCO1 052053Z 03002KT 40/12 A2985 RMK A01 T03990123  RH  020%=      5-min Rain = 0
KCO1 052054Z 09002KT 40/12 A2985 RMK A01 T03980122  RH  019%=      5-min Rain = 0
KCO1 052055Z 09003KT 40/12 A2985 RMK A01 T03980122  RH  019%=      5-min Rain = 0
KCO1 052056Z 07004KT 40/12 A2985 RMK A01 T04000123  RH  019%=      5-min Rain = 0
KCO1 052057Z 08005KT 40/12 A2985 RMK A01 T03990122  RH  019%=      5-min Rain = 0
KCO1 052058Z 08006KT 40/12 A2985 RMK A01 T03990123  RH  020%=      5-min Rain = 0
KCO1 052059Z 07006KT 40/12 A2985 RMK A01 T03990122  RH  019%=      5-min Rain = 0
KCO1 052100Z 07005KT 40/12 A2985 RMK A01 T03990123  RH  019%=      5-min Rain = 0
KCO1 052101Z 09004KT 40/12 A2985 RMK A01 T03990122  RH  019%=      5-min Rain = 0
KCO1 052102Z 15003KT 40/12 A2985 RMK A01 T03990123  RH  019%=      5-min Rain = 0
KCO1 052103Z 16002KT 40/12 A2985 RMK A01 T03990121  RH  019%=      5-min Rain = 0
KCO1 052104Z 16003KT 40/12 A2985 RMK A01 T04010124  RH  019%=      5-min Rain = 0
KCO1 052105Z 18005KT 40/13 A2984 RMK A01 T04030125  RH  019%=      5-min Rain = 0
KCO1 052106Z 19004KT 40/13 A2985 RMK A01 T04020127  RH  020%=      5-min Rain = 0
KCO1 052107Z 13002KT 40/13 A2985 RMK A01 T04020126  RH  020%=      5-min Rain = 0
KCO1 052108Z 13002KT 40/12 A2985 RMK A01 T04040124  RH  019%=      5-min Rain = 0
KCO1 052109Z 08002KT 41/12 A2984 RMK A01 T04060123  RH  019%=      5-min Rain = 0
KCO1 052110Z 05004KT 41/12 A2984 RMK A01 T04060123  RH  019%=      5-min Rain = 0
KCO1 052111Z 03005KT 41/12 A2984 RMK A01 T04060121  RH  018%=      5-min Rain = 0
KCO1 052112Z 03004KT 41/12 A2984 RMK A01 T04060124  RH  019%=      5-min Rain = 0
KCO1 052113Z 02003KT 41/12 A2984 RMK A01 T04080124  RH  019%=      5-min Rain = 0
KCO1 052114Z 36004KT 41/12 A2984 RMK A01 T04100123  RH  018%=      5-min Rain = 0
KCO1 052115Z 33005KT 41/12 A2984 RMK A01 T04110122  RH  018%=      5-min Rain = 0
KCO1 052116Z 32004KT 41/12 A2984 RMK A01 T04080123  RH  019%=      5-min Rain = 0
KCO1 052117Z 33005KT 41/12 A2984 RMK A01 T04060122  RH  019%=      5-min Rain = 0
KCO1 052118Z 30004KT 40/12 A2984 RMK A01 T04040123  RH  019%=      5-min Rain = 0
KCO1 052119Z 28004KT 40/12 A2984 RMK A01 T04040122  RH  019%=      5-min Rain = 0
KCO1 052120Z 25003KT 40/12 A2984 RMK A01 T04020121  RH  019%=      5-min Rain = 0
KCO1 052121Z 23005KT 40/12 A2984 RMK A01 T04010121  RH  019%=      5-min Rain = 0
KCO1 052122Z 24005KT 40/12 A2984 RMK A01 T04020123  RH  019%=      5-min Rain = 0
KCO1 052123Z 23005KT 41/12 A2984 RMK A01 T04050121  RH  019%=      5-min Rain = 0
KCO1 052124Z 21002KT 40/12 A2984 RMK A01 T04040120  RH  019%=      5-min Rain = 0
KCO1 052125Z 21000KT 40/12 A2984 RMK A01 T04020118  RH  019%=      5-min Rain = 0
KCO1 052126Z 27001KT 40/12 A2983 RMK A01 T04010119  RH  019%=      5-min Rain = 0
KCO1 052127Z 24002KT 40/12 A2983 RMK A01 T04040124  RH  019%=      5-min Rain = 0
KCO1 052128Z 22002KT 41/12 A2983 RMK A01 T04060122  RH  019%=      5-min Rain = 0
KCO1 052129Z 36001KT 41/12 A2983 RMK A01 T04080122  RH  018%=      5-min Rain = 0
KCO1 052130Z 28001KT 41/12 A2983 RMK A01 T04090122  RH  018%=      5-min Rain = 0
KCO1 052131Z 24002KT 41/12 A2983 RMK A01 T04090121  RH  018%=      5-min Rain = 0
KCO1 052132Z 15002KT 41/12 A2983 RMK A01 T04090121  RH  018%=      5-min Rain = 0
KCO1 052133Z 18002KT 41/12 A2983 RMK A01 T04060120  RH  018%=      5-min Rain = 0
KCO1 052134Z 18002KT 41/12 A2983 RMK A01 T04060120  RH  018%=      5-min Rain = 0
KCO1 052135Z 12003KT 41/12 A2983 RMK A01 T04070122  RH  019%=      5-min Rain = 0
KCO1 052136Z 16002KT 41/12 A2983 RMK A01 T04070121  RH  018%=      5-min Rain = 0
KCO1 052137Z 18001KT 41/12 A2983 RMK A01 T04050119  RH  018%=      5-min Rain = 0
KCO1 052138Z 23001KT 40/12 A2983 RMK A01 T04040120  RH  019%=      5-min Rain = 0
KCO1 052139Z 17002KT 41/12 A2983 RMK A01 T04050120  RH  019%=      5-min Rain = 0
KCO1 052140Z 18006KT 41/12 A2983 RMK A01 T04070124  RH  019%=      5-min Rain = 0
KCO1 052141Z 17007KT 41/12 A2983 RMK A01 T04080124  RH  019%=      5-min Rain = 0
KCO1 052142Z 18005KT 41/12 A2983 RMK A01 T04060122  RH  019%=      5-min Rain = 0
KCO1 052143Z 16003KT 40/12 A2983 RMK A01 T04030120  RH  019%=      5-min Rain = 0
KCO1 052144Z 24001KT 40/12 A2983 RMK A01 T04010118  RH  019%=      5-min Rain = 0
KCO1 052145Z 25001KT 40/12 A2983 RMK A01 T04010117  RH  019%=      5-min Rain = 0
KCO1 052146Z 18004G9KT 40/12 A2983 RMK A01 T04000119  RH  019%=      5-min Rain = 0
KCO1 052147Z 17008KT 40/12 A2983 RMK A01 T04020120  RH  019%=      5-min Rain = 0
KCO1 052148Z 17008KT 40/12 A2983 RMK A01 T04030121  RH  019%=      5-min Rain = 0
KCO1 052149Z 18007KT 40/12 A2983 RMK A01 T04020121  RH  019%=      5-min Rain = 0
KCO1 052150Z 20005KT 40/12 A2983 RMK A01 T04020120  RH  019%=      5-min Rain = 0
KCO1 052151Z 21003KT 40/12 A2983 RMK A01 T04020121  RH  019%=      5-min Rain = 0
KCO1 052152Z 23003KT 40/12 A2983 RMK A01 T04040119  RH  019%=      5-min Rain = 0
KCO1 052153Z 25002KT 41/12 A2983 RMK A01 T04050120  RH  018%=      5-min Rain = 0
KCO1 052154Z 22002KT 41/12 A2983 RMK A01 T04050122  RH  019%=      5-min Rain = 0
KCO1 052155Z 27003KT 41/12 A2983 RMK A01 T04080121  RH  018%=      5-min Rain = 0
KCO1 052156Z 14006G14KT 41/12 A2982 RMK A01 T04090121  RH  018%=      5-min Rain = 0
KCO1 052157Z 10009KT 41/12 A2983 RMK A01 T04110119  RH  018%=      5-min Rain = 0
KCO1 052158Z 09008KT 41/12 A2983 RMK A01 T04100117  RH  018%=      5-min Rain = 0
KCO1 052159Z 09008KT 41/12 A2983 RMK A01 T04090115  RH  018%=      5-min Rain = 0
KCO1 052200Z 09006KT 41/12 A2983 RMK A01 T04090115  RH  018%=      5-min Rain = 0
KCO1 052201Z 09006KT 41/12 A2983 RMK A01 T04080116  RH  018%=      5-min Rain = 0
KCO1 052202Z 09004KT 41/11 A2983 RMK A01 T04070114  RH  018%=      5-min Rain = 0
KCO1 052203Z 12004KT 40/11 A2983 RMK A01 T04040114  RH  018%=      5-min Rain = 0
KCO1 052204Z 19005KT 40/12 A2983 RMK A01 T04040116  RH  018%=      5-min Rain = 0
KCO1 052205Z 16002KT 40/12 A2983 RMK A01 T04040115  RH  018%=      5-min Rain = 0
KCO1 052206Z 11002KT 40/12 A2983 RMK A01 T04030115  RH  018%=      5-min Rain = 0
KCO1 052207Z 27001KT 40/11 A2983 RMK A01 T04010113  RH  018%=      5-min Rain = 0
KCO1 052208Z 20003KT 40/11 A2983 RMK A01 T03990112  RH  018%=      5-min Rain = 0
KCO1 052209Z 14003KT 40/11 A2983 RMK A01 T03970114  RH  019%=      5-min Rain = 0
KCO1 052210Z 14002KT 40/12 A2983 RMK A01 T03960117  RH  019%=      5-min Rain = 0
KCO1 052211Z 14006KT 40/12 A2983 RMK A01 T03990116  RH  019%=      5-min Rain = 0
KCO1 052212Z 15006KT 40/11 A2983 RMK A01 T04000114  RH  018%=      5-min Rain = 0
KCO1 052213Z 20005KT 40/12 A2982 RMK A01 T04000118  RH  019%=      5-min Rain = 0
KCO1 052214Z 20003KT 40/11 A2982 RMK A01 T03980113  RH  018%=      5-min Rain = 0
KCO1 052215Z 09003KT 40/12 A2982 RMK A01 T03960115  RH  019%=      5-min Rain = 0
KCO1 052216Z 06004KT 40/11 A2982 RMK A01 T03950112  RH  019%=      5-min Rain = 0
KCO1 052217Z 05005KT 39/11 A2982 RMK A01 T03940112  RH  019%=      5-min Rain = 0
KCO1 052218Z 08006KT 39/11 A2982 RMK A01 T03940113  RH  019%=      5-min Rain = 0
KCO1 052219Z 10008KT 40/11 A2982 RMK A01 T03950113  RH  019%=      5-min Rain = 0
KCO1 052220Z 09008KT 40/11 A2982 RMK A01 T03950112  RH  019%=      5-min Rain = 0
KCO1 052221Z 08006KT 39/11 A2982 RMK A01 T03940113  RH  019%=      5-min Rain = 0
KCO1 052222Z 06003KT 39/11 A2982 RMK A01 T03930112  RH  019%=      5-min Rain = 0
KCO1 052223Z 05005KT 39/11 A2982 RMK A01 T03920111  RH  019%=      5-min Rain = 0
KCO1 052224Z 02003KT 39/11 A2982 RMK A01 T03910110  RH  019%=      5-min Rain = 0
KCO1 052225Z 01004KT 39/11 A2982 RMK A01 T03890109  RH  019%=      5-min Rain = 0
KCO1 052226Z 03004KT 39/11 A2982 RMK A01 T03880109  RH  019%=      5-min Rain = 0
KCO1 052227Z 04003KT 39/11 A2982 RMK A01 T03880109  RH  019%=      5-min Rain = 0
KCO1 052228Z 06001KT 39/11 A2982 RMK A01 T03880110  RH  019%=      5-min Rain = 0
KCO1 052229Z 13005KT 39/11 A2982 RMK A01 T03890113  RH  019%=      5-min Rain = 0
KCO1 052230Z 13006KT 39/11 A2982 RMK A01 T03900113  RH  019%=      5-min Rain = 0
KCO1 052231Z 13005KT 39/11 A2982 RMK A01 T03900113  RH  019%=      5-min Rain = 0
KCO1 052232Z 14007KT 39/11 A2982 RMK A01 T03890114  RH  019%=      5-min Rain = 0
KCO1 052233Z 13006KT 39/11 A2982 RMK A01 T03900113  RH  019%=      5-min Rain = 0
KCO1 052234Z 14005KT 39/11 A2982 RMK A01 T03900113  RH  019%=      5-min Rain = 0
KCO1 052235Z 13003KT 39/11 A2981 RMK A01 T03930113  RH  019%=      5-min Rain = 0
KCO1 052236Z 32002KT 39/11 A2981 RMK A01 T03940109  RH  018%=      5-min Rain = 0
KCO1 052237Z 32003KT 39/11 A2981 RMK A01 T03940109  RH  018%=      5-min Rain = 0
KCO1 052238Z 20003KT 40/11 A2981 RMK A01 T03950111  RH  018%=      5-min Rain = 0
KCO1 052239Z 16005KT 40/11 A2981 RMK A01 T03970111  RH  018%=      5-min Rain = 0
KCO1 052240Z 17004KT 40/11 A2981 RMK A01 T03990111  RH  018%=      5-min Rain = 0
KCO1 052241Z 19003KT 40/11 A2981 RMK A01 T04010109  RH  018%=      5-min Rain = 0
KCO1 052242Z 22003KT 40/11 A2981 RMK A01 T04000108  RH  017%=      5-min Rain = 0
KCO1 052243Z 24002KT 40/11 A2981 RMK A01 T04000108  RH  017%=      5-min Rain = 0
KCO1 052244Z 19000KT 40/11 A2981 RMK A01 T04000108  RH  018%=      5-min Rain = 0
KCO1 052245Z 15001KT 40/11 A2981 RMK A01 T04010108  RH  017%=      5-min Rain = 0
KCO1 052246Z 18002KT 40/11 A2981 RMK A01 T04020109  RH  017%=      5-min Rain = 0
KCO1 052247Z 16004KT 40/11 A2981 RMK A01 T04030110  RH  017%=      5-min Rain = 0
KCO1 052248Z 16004KT 40/11 A2981 RMK A01 T04040112  RH  018%=      5-min Rain = 0
KCO1 052249Z 16005KT 41/11 A2981 RMK A01 T04050109  RH  017%=      5-min Rain = 0
KCO1 052250Z 10006KT 41/11 A2981 RMK A01 T04050111  RH  017%=      5-min Rain = 0
KCO1 052251Z 09006KT 41/11 A2981 RMK A01 T04080113  RH  017%=      5-min Rain = 0
KCO1 052252Z 12006KT 41/11 A2981 RMK A01 T04080109  RH  017%=      5-min Rain = 0
KCO1 052253Z 11004KT 41/11 A2981 RMK A01 T04070109  RH  017%=      5-min Rain = 0
KCO1 052254Z 11003KT 41/11 A2981 RMK A01 T04080111  RH  017%=      5-min Rain = 0
KCO1 052255Z 12006KT 41/11 A2981 RMK A01 T04090107  RH  017%=      5-min Rain = 0
KCO1 052256Z 12005KT 41/11 A2981 RMK A01 T04080109  RH  017%=      5-min Rain = 0
KCO1 052257Z 14005KT 41/11 A2981 RMK A01 T04070110  RH  017%=      5-min Rain = 0
KCO1 052258Z 16003KT 41/11 A2981 RMK A01 T04080110  RH  017%=      5-min Rain = 0
KCO1 052259Z 13006KT 41/11 A2981 RMK A01 T04100112  RH  017%=      5-min Rain = 0
KCO1 052300Z 10003KT 41/11 A2981 RMK A01 T04110112  RH  017%=      5-min Rain = 0
KCO1 052301Z 03003KT 41/11 A2981 RMK A01 T04120110  RH  017%=      5-min Rain = 0
KCO1 052302Z 04006KT 41/11 A2981 RMK A01 T04120108  RH  016%=      5-min Rain = 0
KCO1 052303Z 09005KT 41/11 A2981 RMK A01 T04090109  RH  017%=      5-min Rain = 0
KCO1 052304Z 12007KT 41/11 A2981 RMK A01 T04090108  RH  017%=      5-min Rain = 0
KCO1 052305Z 06006KT 41/11 A2981 RMK A01 T04080108  RH  017%=      5-min Rain = 0
KCO1 052306Z 04006KT 41/11 A2981 RMK A01 T04090108  RH  017%=      5-min Rain = 0
KCO1 052307Z 05005KT 41/11 A2981 RMK A01 T04080108  RH  017%=      5-min Rain = 0
KCO1 052308Z 12007KT 41/11 A2981 RMK A01 T04070108  RH  017%=      5-min Rain = 0
KCO1 052309Z 10008KT 41/11 A2981 RMK A01 T04060108  RH  017%=      5-min Rain = 0
KCO1 052310Z 09011KT 41/11 A2981 RMK A01 T04070105  RH  017%=      5-min Rain = 0
KCO1 052311Z 10012KT 41/11 A2981 RMK A01 T04080105  RH  016%=      5-min Rain = 0
KCO1 052312Z 11013KT 41/11 A2981 RMK A01 T04060105  RH  017%=      5-min Rain = 0
KCO1 052313Z 12010KT 41/11 A2981 RMK A01 T04050106  RH  017%=      5-min Rain = 0
KCO1 052314Z 13014KT 41/11 A2981 RMK A01 T04070107  RH  017%=      5-min Rain = 0
KCO1 052315Z 12015KT 41/10 A2981 RMK A01 T04070104  RH  016%=      5-min Rain = 0
KCO1 052316Z 13013KT 41/11 A2981 RMK A01 T04050106  RH  017%=      5-min Rain = 0
KCO1 052317Z 12015KT 40/11 A2981 RMK A01 T04040105  RH  017%=      5-min Rain = 0
KCO1 052318Z 10014KT 41/11 A2981 RMK A01 T04050105  RH  017%=      5-min Rain = 0
KCO1 052319Z 11013KT 40/10 A2981 RMK A01 T04040104  RH  017%=      5-min Rain = 0
KCO1 052320Z 13013KT 40/11 A2982 RMK A01 T04040105  RH  017%=      5-min Rain = 0
KCO1 052321Z 13012KT 40/11 A2981 RMK A01 T04030106  RH  017%=      5-min Rain = 0
KCO1 052322Z 12014KT 40/11 A2981 RMK A01 T04030106  RH  017%=      5-min Rain = 0
KCO1 052323Z 14014KT 40/11 A2981 RMK A01 T04030105  RH  017%=      5-min Rain = 0
KCO1 052324Z 15011KT 40/10 A2981 RMK A01 T04010103  RH  017%=      5-min Rain = 0
KCO1 052325Z 13012KT 40/11 A2981 RMK A01 T03990105  RH  017%=      5-min Rain = 0
KCO1 052326Z 13014KT 40/11 A2982 RMK A01 T03990105  RH  017%=      5-min Rain = 0
KCO1 052327Z 13017KT 40/10 A2981 RMK A01 T03990104  RH  017%=      5-min Rain = 0
KCO1 052328Z 13022KT 40/11 A2982 RMK A01 T03980113  RH  018%=      5-min Rain = 0
KCO1 052329Z 17024G29KT 39/13 A2982 RMK A01 T03880126  RH  021%=      5-min Rain = 0
KCO1 052330Z 19023KT 38/13 A2982 RMK A01 T03750130  RH  023%=      5-min Rain = 0
KCO1 052331Z 19021KT 37/13 A2982 RMK A01 T03680132  RH  024%=      5-min Rain = 0
KCO1 052332Z 19023G29KT 37/13 A2981 RMK A01 T03650134  RH  025%=      5-min Rain = 0
KCO1 052333Z 18029KT 36/14 A2982 RMK A01 T03620136  RH  026%=      5-min Rain = 0
KCO1 052334Z 18022KT 36/14 A2982 RMK A01 T03580137  RH  027%=      5-min Rain = 0
KCO1 052335Z 18026KT 36/14 A2982 RMK A01 T03570138  RH  027%=      5-min Rain = 0
KCO1 052336Z 18023KT 36/14 A2982 RMK A01 T03560138  RH  027%=      5-min Rain = 0
KCO1 052337Z 19020G25KT 36/14 A2982 RMK A01 T03550139  RH  027%=      5-min Rain = 0
KCO1 052338Z 18018G24KT 36/14 A2982 RMK A01 T03550140  RH  028%=      5-min Rain = 0
KCO1 052339Z 18020G26KT 35/14 A2982 RMK A01 T03540141  RH  028%=      5-min Rain = 0
KCO1 052340Z 18025KT 35/14 A2982 RMK A01 T03520141  RH  028%=      5-min Rain = 0
KCO1 052341Z 18025G30KT 35/14 A2982 RMK A01 T03500141  RH  029%=      5-min Rain = 0
KCO1 052342Z 18025G31KT 35/14 A2982 RMK A01 T03490142  RH  029%=      5-min Rain = 0
KCO1 052343Z 18024KT 35/14 A2982 RMK A01 T03480143  RH  029%=      5-min Rain = 0
KCO1 052344Z 18024G29KT 35/14 A2982 RMK A01 T03480144  RH  029%=      5-min Rain = 0
KCO1 052345Z 19024G32KT 35/14 A2982 RMK A01 T03470144  RH  030%=      5-min Rain = 0
KCO1 052346Z 19027G33KT 35/14 A2982 RMK A01 T03460143  RH  030%=      5-min Rain = 0
KCO1 052347Z 19024G30KT 34/14 A2982 RMK A01 T03440143  RH  030%=      5-min Rain = 0
KCO1 052348Z 19021G28KT 34/14 A2982 RMK A01 T03440143  RH  030%=      5-min Rain = 0
KCO1 052349Z 19025KT 34/14 A2982 RMK A01 T03440144  RH  030%=      5-min Rain = 0
KCO1 052350Z 18024G31KT 34/14 A2982 RMK A01 T03440144  RH  030%=      5-min Rain = 0
KCO1 052351Z 19030KT 34/14 A2982 RMK A01 T03440144  RH  030%=      5-min Rain = 0
KCO1 052352Z 19027G34KT 34/14 A2982 RMK A01 T03420144  RH  030%=      5-min Rain = 0
KCO1 052353Z 19024G29KT 34/14 A2983 RMK A01 T03400144  RH  031%=      5-min Rain = 0
KCO1 052354Z 19024G29KT 34/15 A2983 RMK A01 T03400145  RH  031%=      5-min Rain = 0
KCO1 052355Z 19022G28KT 34/15 A2983 RMK A01 T03400145  RH  031%=      5-min Rain = 0
KCO1 052356Z 18020G25KT 34/15 A2983 RMK A01 T03400145  RH  031%=      5-min Rain = 0
KCO1 052357Z 18022G29KT 34/15 A2983 RMK A01 T03410145  RH  031%=      5-min Rain = 0
KCO1 052358Z 19025KT 34/15 A2983 RMK A01 T03430145  RH  030%=      5-min Rain = 0
KCO1 052359Z 18025G33KT 34/14 A2983 RMK A01 T03440144  RH  030%=      5-min Rain = 0
KCO1 060000Z 19025G33KT 34/14 A2983 RMK A01 T03420144  RH  030%=      5-min Rain = 0
KCO1 060001Z 19024G31KT 34/14 A2983 RMK A01 T03400144  RH  031%=      5-min Rain = 0
KCO1 060002Z 19022G28KT 34/15 A2983 RMK A01 T03380145  RH  031%=      5-min Rain = 0
KCO1 060003Z 19022KT 34/15 A2983 RMK A01 T03370146  RH  032%=      5-min Rain = 0
KCO1 060004Z 19024G29KT 34/15 A2983 RMK A01 T03370146  RH  032%=      5-min Rain = 0
KCO1 060005Z 19023KT 34/15 A2983 RMK A01 T03370146  RH  032%=      5-min Rain = 0
KCO1 060006Z 19020KT 34/15 A2983 RMK A01 T03370146  RH  032%=      5-min Rain = 0
KCO1 060007Z 18019G25KT 34/15 A2983 RMK A01 T03380147  RH  032%=      5-min Rain = 0
KCO1 060008Z 18022KT 34/15 A2983 RMK A01 T03390147  RH  032%=      5-min Rain = 0
KCO1 060009Z 18022KT 34/15 A2983 RMK A01 T03390148  RH  032%=      5-min Rain = 0
KCO1 060010Z 19022G28KT 34/15 A2983 RMK A01 T03390148  RH  032%=      5-min Rain = 0
KCO1 060011Z 18022KT 34/15 A2983 RMK A01 T03380148  RH  032%=      5-min Rain = 0
KCO1 060012Z 19019KT 34/15 A2983 RMK A01 T03370149  RH  032%=      5-min Rain = 0
KCO1 060013Z 19021G27KT 34/15 A2983 RMK A01 T03360149  RH  033%=      5-min Rain = 0
KCO1 060014Z 18019KT 33/15 A2983 RMK A01 T03340149  RH  033%=      5-min Rain = 0
KCO1 060015Z 18020G26KT 33/15 A2983 RMK A01 T03330149  RH  033%=      5-min Rain = 0
KCO1 060016Z 18021G27KT 33/15 A2983 RMK A01 T03320150  RH  033%=      5-min Rain = 0
KCO1 060017Z 18022KT 33/15 A2982 RMK A01 T03310152  RH  034%=      5-min Rain = 0
KCO1 060018Z 18019KT 33/15 A2982 RMK A01 T03290152  RH  034%=      5-min Rain = 0
KCO1 060019Z 18023KT 33/15 A2982 RMK A01 T03280152  RH  035%=      5-min Rain = 0
KCO1 060020Z 18020G25KT 33/15 A2982 RMK A01 T03260153  RH  035%=      5-min Rain = 0
KCO1 060021Z 18023G29KT 33/15 A2982 RMK A01 T03250152  RH  035%=      5-min Rain = 0
KCO1 060022Z 18024KT 32/15 A2982 RMK A01 T03240152  RH  036%=      5-min Rain = 0
KCO1 060023Z 18023G28KT 32/15 A2982 RMK A01 T03230153  RH  036%=      5-min Rain = 0
KCO1 060024Z 18024KT 32/15 A2982 RMK A01 T03210152  RH  036%=      5-min Rain = 0
KCO1 060025Z 18021KT 32/15 A2982 RMK A01 T03210153  RH  036%=      5-min Rain = 0
KCO1 060026Z 18021G26KT 32/16 A2982 RMK A01 T03210155  RH  037%=      5-min Rain = 0
KCO1 060027Z 18021KT 32/16 A2982 RMK A01 T03200156  RH  037%=      5-min Rain = 0
KCO1 060028Z 19021G26KT 32/16 A2982 RMK A01 T03180155  RH  037%=      5-min Rain = 0
KCO1 060029Z 18019G24KT 32/16 A2982 RMK A01 T03180156  RH  038%=      5-min Rain = 0
KCO1 060030Z 18019KT 32/16 A2982 RMK A01 T03180155  RH  037%=      5-min Rain = 0
KCO1 060031Z 18019G25KT 32/16 A2982 RMK A01 T03180155  RH  037%=      5-min Rain = 0
KCO1 060032Z 18021KT 32/15 A2982 RMK A01 T03180153  RH  037%=      5-min Rain = 0
KCO1 060033Z 19018G24KT 32/15 A2982 RMK A01 T03180153  RH  037%=      5-min Rain = 0
KCO1 060034Z 18014KT 32/15 A2982 RMK A01 T03180154  RH  037%=      5-min Rain = 0
KCO1 060035Z 18014KT 32/15 A2982 RMK A01 T03190154  RH  037%=      5-min Rain = 0
KCO1 060036Z 18017G22KT 32/15 A2982 RMK A01 T03190153  RH  037%=      5-min Rain = 0
KCO1 060037Z 18019KT 32/15 A2982 RMK A01 T03190152  RH  036%=      5-min Rain = 0
KCO1 060038Z 19017KT 32/15 A2982 RMK A01 T03200151  RH  036%=      5-min Rain = 0
KCO1 060039Z 18018G24KT 32/15 A2982 RMK A01 T03200151  RH  036%=      5-min Rain = 0
KCO1 060040Z 19018KT 32/15 A2982 RMK A01 T03200150  RH  036%=      5-min Rain = 0
KCO1 060041Z 18020KT 32/15 A2982 RMK A01 T03210149  RH  035%=      5-min Rain = 0
KCO1 060042Z 18017G22KT 32/15 A2982 RMK A01 T03210148  RH  035%=      5-min Rain = 0
KCO1 060043Z 19017KT 32/15 A2982 RMK A01 T03220148  RH  035%=      5-min Rain = 0
KCO1 060044Z 19017KT 32/15 A2982 RMK A01 T03220148  RH  035%=      5-min Rain = 0
KCO1 060045Z 19017KT 32/15 A2982 RMK A01 T03220149  RH  035%=      5-min Rain = 0
KCO1 060046Z 19017KT 32/15 A2982 RMK A01 T03210150  RH  036%=      5-min Rain = 0
KCO1 060047Z 18017KT 32/15 A2982 RMK A01 T03210151  RH  036%=      5-min Rain = 0
KCO1 060048Z 18016KT 32/15 A2982 RMK A01 T03200152  RH  036%=      5-min Rain = 0
KCO1 060049Z 19015G21KT 32/15 A2982 RMK A01 T03200153  RH  036%=      5-min Rain = 0
KCO1 060050Z 19017G22KT 32/15 A2982 RMK A01 T03200154  RH  037%=      5-min Rain = 0
KCO1 060051Z 19019KT 32/15 A2982 RMK A01 T03190154  RH  037%=      5-min Rain = 0
KCO1 060052Z 19015KT 32/16 A2982 RMK A01 T03180155  RH  037%=      5-min Rain = 0
KCO1 060053Z 19015G20KT 32/16 A2982 RMK A01 T03170156  RH  038%=      5-min Rain = 0
KCO1 060054Z 19018KT 32/16 A2982 RMK A01 T03180155  RH  037%=      5-min Rain = 0
KCO1 060055Z 19017KT 32/15 A2982 RMK A01 T03170154  RH  037%=      5-min Rain = 0
KCO1 060056Z 19016G21KT 32/16 A2983 RMK A01 T03170155  RH  037%=      5-min Rain = 0
KCO1 060057Z 19014KT 32/16 A2983 RMK A01 T03170155  RH  038%=      5-min Rain = 0
KCO1 060058Z 19014KT 32/15 A2983 RMK A01 T03170154  RH  037%=      5-min Rain = 0
KCO1 060059Z 19015KT 32/15 A2983 RMK A01 T03170154  RH  037%=      5-min Rain = 0
KCO1 060100Z 19013KT 32/15 A2983 RMK A01 T03170153  RH  037%=      5-min Rain = 0
KCO1 060101Z 19014KT 32/15 A2983 RMK A01 T03170152  RH  037%=      5-min Rain = 0
KCO1 060102Z 19016KT 32/15 A2983 RMK A01 T03170150  RH  036%=      5-min Rain = 0
KCO1 060103Z 19015KT 32/15 A2983 RMK A01 T03180149  RH  036%=      5-min Rain = 0
KCO1 060104Z 19014KT 32/15 A2983 RMK A01 T03190149  RH  036%=      5-min Rain = 0
KCO1 060105Z 19015KT 32/15 A2983 RMK A01 T03190149  RH  036%=      5-min Rain = 0
KCO1 060106Z 19014KT 32/15 A2984 RMK A01 T03190148  RH  035%=      5-min Rain = 0
KCO1 060107Z 20011KT 32/15 A2984 RMK A01 T03190147  RH  035%=      5-min Rain = 0
KCO1 060108Z 19011KT 32/15 A2984 RMK A01 T03200148  RH  035%=      5-min Rain = 0
KCO1 060109Z 19014KT 32/15 A2984 RMK A01 T03200147  RH  035%=      5-min Rain = 0
KCO1 060110Z 20012G17KT 32/15 A2984 RMK A01 T03200146  RH  035%=      5-min Rain = 0
KCO1 060111Z 20013KT 32/15 A2984 RMK A01 T03210146  RH  035%=      5-min Rain = 0
KCO1 060112Z 20012KT 32/15 A2984 RMK A01 T03210145  RH  035%=      5-min Rain = 0
KCO1 060113Z 20014KT 32/14 A2985 RMK A01 T03210144  RH  034%=      5-min Rain = 0
KCO1 060114Z 20011KT 32/14 A2985 RMK A01 T03210144  RH  034%=      5-min Rain = 0
KCO1 060115Z 20013KT 32/14 A2985 RMK A01 T03210144  RH  034%=      5-min Rain = 0
KCO1 060116Z 20012KT 32/14 A2985 RMK A01 T03210143  RH  034%=      5-min Rain = 0
KCO1 060117Z 21010KT 32/14 A2985 RMK A01 T03220143  RH  034%=      5-min Rain = 0
KCO1 060118Z 20011KT 32/14 A2985 RMK A01 T03220143  RH  034%=      5-min Rain = 0
KCO1 060119Z 21010G15KT 32/14 A2986 RMK A01 T03230143  RH  034%=      5-min Rain = 0
KCO1 060120Z 21012KT 32/14 A2986 RMK A01 T03230142  RH  033%=      5-min Rain = 0
KCO1 060121Z 20011KT 32/14 A2986 RMK A01 T03230142  RH  033%=      5-min Rain = 0
KCO1 060122Z 21009KT 32/14 A2986 RMK A01 T03240141  RH  033%=      5-min Rain = 0
KCO1 060123Z 21010KT 32/14 A2986 RMK A01 T03240142  RH  033%=      5-min Rain = 0
KCO1 060124Z 21009KT 32/14 A2986 RMK A01 T03240141  RH  033%=      5-min Rain = 0
KCO1 060125Z 22008KT 32/14 A2987 RMK A01 T03240141  RH  033%=      5-min Rain = 0
KCO1 060126Z 22008KT 32/14 A2987 RMK A01 T03240141  RH  033%=      5-min Rain = 0
KCO1 060127Z 23007KT 32/14 A2987 RMK A01 T03240141  RH  033%=      5-min Rain = 0
KCO1 060128Z 23006G13KT 32/14 A2988 RMK A01 T03240142  RH  033%=      5-min Rain = 0
KCO1 060129Z 23009KT 32/14 A2988 RMK A01 T03240144  RH  034%=      5-min Rain = 0
KCO1 060130Z 23008KT 32/15 A2988 RMK A01 T03230145  RH  034%=      5-min Rain = 0
KCO1 060131Z 25005KT 32/15 A2988 RMK A01 T03220147  RH  035%=      5-min Rain = 0
KCO1 060132Z 28005KT 32/15 A2989 RMK A01 T03210149  RH  036%=      5-min Rain = 0
KCO1 060133Z 29008KT 32/15 A2989 RMK A01 T03200151  RH  036%=      5-min Rain = 0
KCO1 060134Z 31008KT 32/15 A2989 RMK A01 T03190153  RH  037%=      5-min Rain = 0
KCO1 060135Z 30007KT 32/15 A299 RMK A01 T03180154  RH  037%=      5-min Rain = 0
KCO1 060136Z 31007KT 32/16 A299 RMK A01 T03170157  RH  038%=      5-min Rain = 0
KCO1 060137Z 32009KT 32/16 A2991 RMK A01 T03160157  RH  038%=      5-min Rain = 0
KCO1 060138Z 32012KT 32/16 A2991 RMK A01 T03150159  RH  039%=      5-min Rain = 0
KCO1 060139Z 32016KT 31/17 A2991 RMK A01 T03130165  RH  041%=      5-min Rain = 0
KCO1 060140Z 35015KT 31/18 A2992 RMK A01 T03070175  RH  045%=      5-min Rain = 0
KCO1 060141Z 35016KT 30/18 A2992 RMK A01 T03010180  RH  048%=      5-min Rain = 0
KCO1 060142Z 35020KT 29/18 A2992 RMK A01 T02940181  RH  050%=      5-min Rain = 0
KCO1 060143Z 35019G24KT 29/18 A2992 RMK A01 T02880183  RH  053%=      5-min Rain = 0
KCO1 060144Z 34023KT 28/19 A2992 RMK A01 T02820186  RH  056%=      5-min Rain = 0
KCO1 060145Z 35020G26KT 28/19 A2993 RMK A01 T02760189  RH  059%=      5-min Rain = 0
KCO1 060146Z 33018KT 27/19 A2993 RMK A01 T02700194  RH  063%=      5-min Rain = 0
KCO1 060147Z 33021KT 27/19 A2993 RMK A01 T02660189  RH  063%=      5-min Rain = 0
KCO1 060148Z 33021KT 26/19 A2994 RMK A01 T02640187  RH  062%=      5-min Rain = 0.01
KCO1 060149Z 33019KT 26/19 A2994 RMK A01 T02610189  RH  064%=      5-min Rain = 0
KCO1 060150Z 34018KT 26/19 A2994 RMK A01 T02560189  RH  066%=      5-min Rain = 0.01
KCO1 060151Z 34015KT 25/19 A2995 RMK A01 T02520192  RH  069%=      5-min Rain = 0.01
KCO1 060152Z 35013KT 25/19 A2995 RMK A01 T02470191  RH  071%=      5-min Rain = 0.01
KCO1 060153Z 01011KT 24/20 A2995 RMK A01 T02430196  RH  075%=      5-min Rain = 0
KCO1 060154Z 01014KT 24/20 A2995 RMK A01 T02390202  RH  080%=      5-min Rain = 0.01
KCO1 060155Z 02013KT 24/20 A2995 RMK A01 T02360202  RH  081%=      5-min Rain = 0
KCO1 060156Z 01013KT 24/20 A2995 RMK A01 T02350199  RH  080%=      5-min Rain = 0.01
KCO1 060157Z 02011KT 24/20 A2995 RMK A01 T02350196  RH  079%=      5-min Rain = 0
KCO1 060158Z 03010KT 24/20 A2995 RMK A01 T02350197  RH  079%=      5-min Rain = 0
KCO1 060159Z 04011KT 24/20 A2995 RMK A01 T02350200  RH  081%=      5-min Rain = 0.01
KCO1 060200Z 04011KT 24/20 A2995 RMK A01 T02350198  RH  079%=      5-min Rain = 0
KCO1 060201Z 05010KT 24/20 A2995 RMK A01 T02360196  RH  078%=      5-min Rain = 0
KCO1 060202Z 04010KT 24/19 A2995 RMK A01 T02380194  RH  077%=      5-min Rain = 0
KCO1 060203Z 04009KT 24/19 A2994 RMK A01 T02380192  RH  075%=      5-min Rain = 0
KCO1 060204Z 04009KT 24/20 A2994 RMK A01 T02400195  RH  076%=      5-min Rain = 0
KCO1 060205Z 06008KT 24/20 A2994 RMK A01 T02400200  RH  078%=      5-min Rain = 0
KCO1 060206Z 07007KT 24/20 A2994 RMK A01 T02400202  RH  080%=      5-min Rain = 0.01
KCO1 060207Z 07009KT 24/20 A2994 RMK A01 T02390202  RH  079%=      5-min Rain = 0
KCO1 060208Z 08007KT 24/20 A2993 RMK A01 T02390203  RH  080%=      5-min Rain = 0
KCO1 060209Z 08008KT 24/20 A2993 RMK A01 T02390203  RH  080%=      5-min Rain = 0
KCO1 060210Z 08009KT 24/20 A2993 RMK A01 T02390203  RH  080%=      5-min Rain = 0
KCO1 060211Z 08009KT 24/20 A2993 RMK A01 T02390204  RH  081%=      5-min Rain = 0
KCO1 060212Z 09009KT 24/20 A2993 RMK A01 T02390203  RH  080%=      5-min Rain = 0
KCO1 060213Z 10009KT 24/20 A2993 RMK A01 T02400201  RH  079%=      5-min Rain = 0
KCO1 060214Z 11007KT 24/20 A2993 RMK A01 T02400202  RH  079%=      5-min Rain = 0
KCO1 060215Z 09006KT 24/21 A2994 RMK A01 T02400206  RH  081%=      5-min Rain = 0
KCO1 060216Z 07007KT 24/21 A2994 RMK A01 T02400207  RH  082%=      5-min Rain = 0
KCO1 060217Z 05007KT 24/21 A2994 RMK A01 T02390206  RH  082%=      5-min Rain = 0
KCO1 060218Z 04008KT 24/21 A2994 RMK A01 T02390205  RH  081%=      5-min Rain = 0
KCO1 060219Z 02009KT 24/21 A2994 RMK A01 T02400206  RH  081%=      5-min Rain = 0
KCO1 060220Z 02011KT 24/21 A2995 RMK A01 T02400207  RH  082%=      5-min Rain = 0
KCO1 060221Z 01011KT 24/21 A2995 RMK A01 T02410207  RH  081%=      5-min Rain = 0
KCO1 060222Z 02009KT 24/21 A2995 RMK A01 T02400208  RH  083%=      5-min Rain = 0
KCO1 060223Z 03011KT 24/21 A2995 RMK A01 T02390209  RH  083%=      5-min Rain = 0.01
KCO1 060224Z 04010KT 24/21 A2995 RMK A01 T02370206  RH  083%=      5-min Rain = 0
KCO1 060225Z 04008KT 24/20 A2995 RMK A01 T02370204  RH  082%=      5-min Rain = 0
KCO1 060226Z 05009KT 24/21 A2994 RMK A01 T02360205  RH  083%=      5-min Rain = 0
KCO1 060227Z 06010KT 24/21 A2994 RMK A01 T02360205  RH  082%=      5-min Rain = 0
KCO1 060228Z 06011KT 24/20 A2994 RMK A01 T02350203  RH  082%=      5-min Rain = 0
KCO1 060229Z 07011KT 24/20 A2994 RMK A01 T02350202  RH  082%=      5-min Rain = 0
KCO1 060230Z 07013KT 23/20 A2994 RMK A01 T02340202  RH  082%=      5-min Rain = 0
KCO1 060231Z 08013KT 24/20 A2994 RMK A01 T02350201  RH  081%=      5-min Rain = 0
KCO1 060232Z 08011KT 24/20 A2993 RMK A01 T02350201  RH  081%=      5-min Rain = 0
KCO1 060233Z 09012KT 24/20 A2993 RMK A01 T02360202  RH  081%=      5-min Rain = 0
KCO1 060234Z 08013KT 24/20 A2993 RMK A01 T02360202  RH  081%=      5-min Rain = 0
KCO1 060235Z 09013KT 24/20 A2992 RMK A01 T02360203  RH  082%=      5-min Rain = 0
KCO1 060236Z 09012KT 24/20 A2992 RMK A01 T02360203  RH  082%=      5-min Rain = 0
KCO1 060237Z 10013KT 24/20 A2992 RMK A01 T02350203  RH  082%=      5-min Rain = 0
KCO1 060238Z 10013KT 23/20 A2991 RMK A01 T02340202  RH  082%=      5-min Rain = 0
KCO1 060239Z 10014KT 24/20 A2991 RMK A01 T02350202  RH  082%=      5-min Rain = 0
KCO1 060240Z 10013KT 24/20 A299 RMK A01 T02350203  RH  082%=      5-min Rain = 0
KCO1 060241Z 11014KT 24/20 A299 RMK A01 T02350203  RH  082%=      5-min Rain = 0
KCO1 060242Z 10017KT 23/20 A299 RMK A01 T02340202  RH  082%=      5-min Rain = 0
KCO1 060243Z 10018KT 23/20 A299 RMK A01 T02340200  RH  081%=      5-min Rain = 0
KCO1 060244Z 10018KT 24/20 A2989 RMK A01 T02350199  RH  081%=      5-min Rain = 0
KCO1 060245Z 10018KT 24/20 A2989 RMK A01 T02350197  RH  079%=      5-min Rain = 0
KCO1 060246Z 10017KT 24/19 A2989 RMK A01 T02370194  RH  077%=      5-min Rain = 0
KCO1 060247Z 11015G20KT 24/19 A2989 RMK A01 T02400193  RH  075%=      5-min Rain = 0
KCO1 060248Z 11016KT 24/19 A2989 RMK A01 T02410193  RH  075%=      5-min Rain = 0
KCO1 060249Z 11015KT 24/19 A2989 RMK A01 T02420192  RH  074%=      5-min Rain = 0
KCO1 060250Z 11015KT 24/19 A2989 RMK A01 T02430193  RH  073%=      5-min Rain = 0
KCO1 060251Z 11015KT 24/19 A2989 RMK A01 T02430194  RH  074%=      5-min Rain = 0
KCO1 060252Z 11016KT 24/19 A2989 RMK A01 T02430193  RH  074%=      5-min Rain = 0
KCO1 060253Z 11015KT 24/19 A2989 RMK A01 T02440193  RH  073%=      5-min Rain = 0
KCO1 060254Z 11014KT 24/19 A2989 RMK A01 T02440194  RH  073%=      5-min Rain = 0
KCO1 060255Z 11013KT 24/20 A2989 RMK A01 T02440195  RH  074%=      5-min Rain = 0
KCO1 060256Z 11012KT 24/20 A2989 RMK A01 T02430197  RH  076%=      5-min Rain = 0
KCO1 060257Z 11013KT 24/20 A2989 RMK A01 T02420198  RH  076%=      5-min Rain = 0
KCO1 060258Z 10013KT 24/20 A2989 RMK A01 T02410199  RH  077%=      5-min Rain = 0
KCO1 060259Z 10013KT 24/20 A299 RMK A01 T02400199  RH  078%=      5-min Rain = 0
KCO1 060300Z 09012KT 24/20 A299 RMK A01 T02390200  RH  079%=      5-min Rain = 0
KCO1 060301Z 10012KT 24/20 A299 RMK A01 T02390200  RH  079%=      5-min Rain = 0
KCO1 060302Z 10011KT 24/20 A299 RMK A01 T02390200  RH  079%=      5-min Rain = 0
KCO1 060303Z 10009KT 24/20 A299 RMK A01 T02390199  RH  079%=      5-min Rain = 0
KCO1 060304Z 09008KT 24/20 A299 RMK A01 T02380200  RH  079%=      5-min Rain = 0
KCO1 060305Z 10008KT 24/20 A2991 RMK A01 T02380199  RH  079%=      5-min Rain = 0
KCO1 060306Z 09007KT 24/20 A2991 RMK A01 T02380199  RH  079%=      5-min Rain = 0
KCO1 060307Z 09005KT 24/20 A2991 RMK A01 T02380200  RH  079%=      5-min Rain = 0
KCO1 060308Z 09005KT 24/20 A2991 RMK A01 T02380200  RH  079%=      5-min Rain = 0
KCO1 060309Z 09004KT 24/20 A2991 RMK A01 T02370199  RH  079%=      5-min Rain = 0
KCO1 060310Z 09004KT 24/20 A2991 RMK A01 T02370200  RH  080%=      5-min Rain = 0
KCO1 060311Z 08004KT 24/20 A2991 RMK A01 T02370200  RH  080%=      5-min Rain = 0
KCO1 060312Z 07004KT 24/20 A2991 RMK A01 T02370202  RH  081%=      5-min Rain = 0
KCO1 060313Z 08005KT 24/20 A2992 RMK A01 T02370201  RH  080%=      5-min Rain = 0
KCO1 060314Z 07004KT 24/20 A2992 RMK A01 T02370202  RH  081%=      5-min Rain = 0
KCO1 060315Z 06004KT 24/20 A2992 RMK A01 T02370202  RH  081%=      5-min Rain = 0
KCO1 060316Z 06004KT 24/20 A2991 RMK A01 T02370202  RH  081%=      5-min Rain = 0
KCO1 060317Z 06004KT 24/20 A2991 RMK A01 T02370203  RH  081%=      5-min Rain = 0
KCO1 060318Z 06004KT 24/20 A2991 RMK A01 T02370203  RH  081%=      5-min Rain = 0
KCO1 060319Z 06004KT 24/20 A2991 RMK A01 T02370203  RH  081%=      5-min Rain = 0
KCO1 060320Z 07004KT 24/20 A2991 RMK A01 T02370204  RH  082%=      5-min Rain = 0
KCO1 060321Z 07004KT 24/20 A2991 RMK A01 T02370204  RH  082%=      5-min Rain = 0
KCO1 060322Z 07005KT 24/21 A2991 RMK A01 T02370205  RH  082%=      5-min Rain = 0
KCO1 060323Z 08004KT 24/20 A2991 RMK A01 T02360204  RH  082%=      5-min Rain = 0
KCO1 060324Z 10004KT 24/20 A2991 RMK A01 T02360204  RH  082%=      5-min Rain = 0
KCO1 060325Z 10004KT 24/20 A2992 RMK A01 T02360203  RH  082%=      5-min Rain = 0
KCO1 060326Z 10004KT 24/20 A2992 RMK A01 T02360202  RH  081%=      5-min Rain = 0
KCO1 060327Z 11004KT 24/20 A2992 RMK A01 T02360201  RH  081%=      5-min Rain = 0
KCO1 060328Z 11003KT 24/20 A2992 RMK A01 T02360200  RH  080%=      5-min Rain = 0
KCO1 060329Z 13002KT 24/20 A2992 RMK A01 T02370201  RH  080%=      5-min Rain = 0
KCO1 060330Z 17001KT 24/20 A2992 RMK A01 T02370202  RH  081%=      5-min Rain = 0
KCO1 060331Z 24002KT 24/20 A2992 RMK A01 T02380203  RH  081%=      5-min Rain = 0
KCO1 060332Z 27002KT 24/20 A2992 RMK A01 T02380204  RH  081%=      5-min Rain = 0
KCO1 060333Z 27003KT 24/21 A2992 RMK A01 T02380206  RH  082%=      5-min Rain = 0
KCO1 060334Z 27004KT 24/21 A2992 RMK A01 T02380207  RH  083%=      5-min Rain = 0
KCO1 060335Z 29004KT 24/21 A2992 RMK A01 T02380207  RH  083%=      5-min Rain = 0
KCO1 060336Z 30005KT 24/21 A2992 RMK A01 T02370206  RH  083%=      5-min Rain = 0
KCO1 060337Z 31004KT 24/21 A2992 RMK A01 T02360207  RH  084%=      5-min Rain = 0
KCO1 060338Z 32004KT 24/21 A2992 RMK A01 T02360207  RH  084%=      5-min Rain = 0
KCO1 060339Z 31004KT 24/21 A2992 RMK A01 T02360207  RH  084%=      5-min Rain = 0
KCO1 060340Z 31004KT 24/21 A2992 RMK A01 T02350206  RH  084%=      5-min Rain = 0
KCO1 060341Z 32004KT 24/21 A2992 RMK A01 T02350206  RH  084%=      5-min Rain = 0
KCO1 060342Z 33003KT 24/21 A2992 RMK A01 T02350206  RH  084%=      5-min Rain = 0
KCO1 060343Z 32002KT 24/21 A2992 RMK A01 T02360205  RH  083%=      5-min Rain = 0
KCO1 060344Z 30002KT 24/21 A2993 RMK A01 T02360205  RH  083%=      5-min Rain = 0
KCO1 060345Z 28002KT 24/21 A2992 RMK A01 T02370205  RH  082%=      5-min Rain = 0
KCO1 060346Z 27002KT 24/21 A2993 RMK A01 T02370205  RH  082%=      5-min Rain = 0
KCO1 060347Z 26002KT 24/21 A2993 RMK A01 T02370206  RH  083%=      5-min Rain = 0
KCO1 060348Z 26002KT 24/21 A2993 RMK A01 T02370207  RH  084%=      5-min Rain = 0
KCO1 060349Z 26002KT 24/21 A2993 RMK A01 T02360208  RH  084%=      5-min Rain = 0
KCO1 060350Z 26002KT 24/21 A2993 RMK A01 T02370209  RH  084%=      5-min Rain = 0
KCO1 060351Z 27002KT 24/21 A2993 RMK A01 T02360208  RH  084%=      5-min Rain = 0
KCO1 060352Z 31002KT 24/21 A2993 RMK A01 T02360207  RH  084%=      5-min Rain = 0
KCO1 060353Z 34002KT 24/21 A2993 RMK A01 T02360208  RH  084%=      5-min Rain = 0
KCO1 060354Z 34002KT 24/21 A2993 RMK A01 T02360209  RH  085%=      5-min Rain = 0
KCO1 060355Z 35003KT 24/21 A2993 RMK A01 T02360209  RH  085%=      5-min Rain = 0
KCO1 060356Z 00005KT 24/21 A2993 RMK A01 T02360208  RH  084%=      5-min Rain = 0
KCO1 060357Z 01006KT 24/21 A2993 RMK A01 T02360211  RH  086%=      5-min Rain = 0
KCO1 060358Z 01006KT 24/22 A2993 RMK A01 T02370215  RH  087%=      5-min Rain = 0
KCO1 060359Z 01007KT 24/21 A2993 RMK A01 T02370213  RH  086%=      5-min Rain = 0
KCO1 060400Z 02008KT 24/21 A2993 RMK A01 T02370214  RH  087%=      5-min Rain = 0
KCO1 060401Z 03006KT 24/21 A2993 RMK A01 T02370211  RH  085%=      5-min Rain = 0
KCO1 060402Z 04006KT 24/21 A2993 RMK A01 T02360209  RH  085%=      5-min Rain = 0
KCO1 060403Z 04005KT 24/21 A2993 RMK A01 T02360208  RH  084%=      5-min Rain = 0
KCO1 060404Z 04005KT 24/21 A2993 RMK A01 T02350208  RH  084%=      5-min Rain = 0
KCO1 060405Z 05004KT 24/21 A2993 RMK A01 T02360208  RH  084%=      5-min Rain = 0
KCO1 060406Z 06004KT 24/21 A2993 RMK A01 T02360209  RH  085%=      5-min Rain = 0
KCO1 060407Z 06004KT 24/21 A2993 RMK A01 T02360210  RH  085%=      5-min Rain = 0
KCO1 060408Z 06003KT 24/21 A2993 RMK A01 T02360211  RH  086%=      5-min Rain = 0
KCO1 060409Z 06003KT 24/21 A2993 RMK A01 T02350210  RH  086%=      5-min Rain = 0
KCO1 060410Z 06002KT 24/21 A2993 RMK A01 T02350210  RH  086%=      5-min Rain = 0
KCO1 060411Z 06002KT 24/21 A2993 RMK A01 T02360210  RH  086%=      5-min Rain = 0
KCO1 060412Z 07002KT 24/21 A2993 RMK A01 T02360210  RH  085%=      5-min Rain = 0
KCO1 060413Z 06003KT 24/21 A2993 RMK A01 T02360209  RH  085%=      5-min Rain = 0
KCO1 060414Z 06004KT 24/21 A2993 RMK A01 T02360208  RH  084%=      5-min Rain = 0
KCO1 060415Z 07003KT 24/21 A2993 RMK A01 T02370209  RH  084%=      5-min Rain = 0
KCO1 060416Z 08004KT 24/21 A2993 RMK A01 T02370210  RH  085%=      5-min Rain = 0
KCO1 060417Z 09004KT 24/21 A2993 RMK A01 T02370208  RH  084%=      5-min Rain = 0
KCO1 060418Z 08004KT 24/21 A2993 RMK A01 T02370207  RH  083%=      5-min Rain = 0
KCO1 060419Z 08004KT 24/21 A2992 RMK A01 T02370207  RH  083%=      5-min Rain = 0
KCO1 060420Z 09004KT 24/21 A2992 RMK A01 T02370206  RH  083%=      5-min Rain = 0
KCO1 060421Z 10004KT 24/21 A2992 RMK A01 T02370205  RH  082%=      5-min Rain = 0
KCO1 060422Z 11003KT 24/20 A2992 RMK A01 T02370204  RH  082%=      5-min Rain = 0
KCO1 060423Z 12003KT 24/20 A2992 RMK A01 T02380204  RH  081%=      5-min Rain = 0
KCO1 060424Z 12004KT 24/20 A2992 RMK A01 T02370203  RH  081%=      5-min Rain = 0
KCO1 060425Z 12004KT 24/20 A2992 RMK A01 T02380202  RH  080%=      5-min Rain = 0
KCO1 060426Z 12005KT 24/20 A2992 RMK A01 T02380202  RH  080%=      5-min Rain = 0
KCO1 060427Z 12005KT 24/20 A2992 RMK A01 T02380201  RH  080%=      5-min Rain = 0
KCO1 060428Z 13006KT 24/20 A2992 RMK A01 T02390201  RH  079%=      5-min Rain = 0
KCO1 060429Z 13006KT 24/20 A2992 RMK A01 T02390201  RH  080%=      5-min Rain = 0
KCO1 060430Z 14006KT 24/20 A2992 RMK A01 T02390202  RH  080%=      5-min Rain = 0
KCO1 060431Z 14006KT 24/20 A2992 RMK A01 T02390203  RH  080%=      5-min Rain = 0
KCO1 060432Z 14006KT 24/20 A2992 RMK A01 T02390203  RH  080%=      5-min Rain = 0
KCO1 060433Z 15006KT 24/20 A2992 RMK A01 T02390203  RH  080%=      5-min Rain = 0
KCO1 060434Z 15006KT 24/20 A2992 RMK A01 T02390203  RH  080%=      5-min Rain = 0
KCO1 060435Z 14006KT 24/20 A2992 RMK A01 T02390203  RH  080%=      5-min Rain = 0
KCO1 060436Z 14006KT 24/20 A2992 RMK A01 T02390203  RH  080%=      5-min Rain = 0
KCO1 060437Z 14006KT 24/20 A2992 RMK A01 T02390202  RH  080%=      5-min Rain = 0
KCO1 060438Z 14005KT 24/20 A2992 RMK A01 T02380202  RH  080%=      5-min Rain = 0
KCO1 060439Z 14005KT 24/20 A2992 RMK A01 T02380202  RH  080%=      5-min Rain = 0
KCO1 060440Z 14005KT 24/20 A2992 RMK A01 T02380203  RH  080%=      5-min Rain = 0
KCO1 060441Z 14006KT 24/20 A2992 RMK A01 T02380203  RH  081%=      5-min Rain = 0
KCO1 060442Z 15006KT 24/20 A2992 RMK A01 T02380203  RH  081%=      5-min Rain = 0
KCO1 060443Z 14005KT 24/20 A2992 RMK A01 T02370203  RH  081%=      5-min Rain = 0
KCO1 060444Z 14005KT 24/20 A2992 RMK A01 T02370203  RH  081%=      5-min Rain = 0
KCO1 060445Z 14004KT 24/20 A2992 RMK A01 T02370203  RH  081%=      5-min Rain = 0
KCO1 060446Z 14004KT 24/20 A2992 RMK A01 T02370203  RH  081%=      5-min Rain = 0
KCO1 060447Z 14004KT 24/20 A2992 RMK A01 T02370203  RH  081%=      5-min Rain = 0
KCO1 060448Z 14004KT 24/20 A2992 RMK A01 T02370203  RH  081%=      5-min Rain = 0
KCO1 060449Z 13003KT 24/20 A2992 RMK A01 T02370203  RH  081%=      5-min Rain = 0
KCO1 060450Z 12003KT 24/20 A2992 RMK A01 T02370203  RH  081%=      5-min Rain = 0
KCO1 060451Z 12002KT 24/20 A2992 RMK A01 T02360202  RH  081%=      5-min Rain = 0
KCO1 060452Z 13002KT 24/20 A2992 RMK A01 T02370203  RH  081%=      5-min Rain = 0
KCO1 060453Z 14003KT 24/20 A2992 RMK A01 T02360202  RH  081%=      5-min Rain = 0
KCO1 060454Z 15003KT 24/20 A2992 RMK A01 T02370202  RH  081%=      5-min Rain = 0
KCO1 060455Z 14003KT 24/20 A2992 RMK A01 T02370203  RH  081%=      5-min Rain = 0
KCO1 060456Z 14004KT 24/20 A2992 RMK A01 T02370203  RH  081%=      5-min Rain = 0
KCO1 060457Z 14004KT 24/20 A2992 RMK A01 T02370204  RH  082%=      5-min Rain = 0
KCO1 060458Z 15004KT 24/21 A2991 RMK A01 T02370205  RH  082%=      5-min Rain = 0
KCO1 060459Z 17004KT 24/21 A2991 RMK A01 T02360206  RH  083%=      5-min Rain = 0

Page generated in 0.0698 seconds.